<?xml version='1.0' encoding='UTF-8'?><gpx version="1.1" creator="JPX - https://github.com/jenetics/jpx" xmlns="http://www.topografix.com/GPX/1/1"><trk><trkseg><trkpt lat="40.8239528" lon="14.8520552"><ele>480.99999999999994</ele><time>2026-04-25T08:30:11.168Z</time></trkpt><trkpt lat="40.8239314" lon="14.8521382"><ele>481.0</ele><time>2026-04-25T08:30:19.244Z</time></trkpt><trkpt lat="40.8239198" lon="14.8522241"><ele>480.99999999999994</ele><time>2026-04-25T08:30:32.165Z</time></trkpt><trkpt lat="40.8238708" lon="14.8522893"><ele>480.99999999999994</ele><time>2026-04-25T08:30:42.165Z</time></trkpt><trkpt lat="40.8238185" lon="14.8523448"><ele>481.0</ele><time>2026-04-25T08:30:51.05Z</time></trkpt><trkpt lat="40.8237817" lon="14.8524194"><ele>480.99999999999994</ele><time>2026-04-25T08:30:57.165Z</time></trkpt><trkpt lat="40.8237224" lon="14.852468"><ele>480.99999999999994</ele><time>2026-04-25T08:31:03.157Z</time></trkpt><trkpt lat="40.8236912" lon="14.8525513"><ele>482.2857142857142</ele><time>2026-04-25T08:31:12.217Z</time></trkpt><trkpt lat="40.8236751" lon="14.8526425"><ele>483.57142857142856</ele><time>2026-04-25T08:31:19.519Z</time></trkpt><trkpt lat="40.8236429" lon="14.852714"><ele>484.85714285714283</ele><time>2026-04-25T08:31:28.34Z</time></trkpt><trkpt lat="40.8235933" lon="14.8527956"><ele>486.1428571428571</ele><time>2026-04-25T08:31:35.165Z</time></trkpt><trkpt lat="40.8235593" lon="14.8528682"><ele>487.42857142857144</ele><time>2026-04-25T08:31:40.133Z</time></trkpt><trkpt lat="40.8235086" lon="14.8529322"><ele>488.7142857142857</ele><time>2026-04-25T08:31:46.165Z</time></trkpt><trkpt lat="40.8234853" lon="14.8530177"><ele>490.0</ele><time>2026-04-25T08:31:53.183Z</time></trkpt><trkpt lat="40.8234552" lon="14.8530936"><ele>490.0</ele><time>2026-04-25T08:31:59.165Z</time></trkpt><trkpt lat="40.8234738" lon="14.8531852"><ele>490.0</ele><time>2026-04-25T08:32:08.154Z</time></trkpt><trkpt lat="40.8234495" lon="14.8532753"><ele>490.0</ele><time>2026-04-25T08:32:16.169Z</time></trkpt><trkpt lat="40.8234437" lon="14.8533586"><ele>490.0</ele><time>2026-04-25T08:32:22.165Z</time></trkpt><trkpt lat="40.8234165" lon="14.8534483"><ele>490.0</ele><time>2026-04-25T08:32:30.156Z</time></trkpt><trkpt lat="40.8233857" lon="14.8535278"><ele>490.0</ele><time>2026-04-25T08:32:38.165Z</time></trkpt><trkpt lat="40.8233409" lon="14.8536023"><ele>490.0</ele><time>2026-04-25T08:32:45.166Z</time></trkpt><trkpt lat="40.8232971" lon="14.8536631"><ele>491.57142857142856</ele><time>2026-04-25T08:32:50.165Z</time></trkpt><trkpt lat="40.8232415" lon="14.8537211"><ele>493.1428571428571</ele><time>2026-04-25T08:32:58.21Z</time></trkpt><trkpt lat="40.8232043" lon="14.8537909"><ele>494.7142857142857</ele><time>2026-04-25T08:33:04.159Z</time></trkpt><trkpt lat="40.8231589" lon="14.8538536"><ele>496.2857142857143</ele><time>2026-04-25T08:33:10.21Z</time></trkpt><trkpt lat="40.8231492" lon="14.853937"><ele>497.85714285714283</ele><time>2026-04-25T08:33:15.21Z</time></trkpt><trkpt lat="40.8230798" lon="14.8539826"><ele>499.42857142857144</ele><time>2026-04-25T08:33:32.165Z</time></trkpt><trkpt lat="40.8230315" lon="14.8540752"><ele>501.0</ele><time>2026-04-25T08:33:42.165Z</time></trkpt><trkpt lat="40.8229985" lon="14.8541561"><ele>501.0</ele><time>2026-04-25T08:33:49.165Z</time></trkpt><trkpt lat="40.8229488" lon="14.8542197"><ele>501.0</ele><time>2026-04-25T08:33:55.198Z</time></trkpt><trkpt lat="40.8228918" lon="14.8542737"><ele>501.0</ele><time>2026-04-25T08:34:14.158Z</time></trkpt><trkpt lat="40.8228234" lon="14.8542819"><ele>501.0</ele><time>2026-04-25T08:34:20.192Z</time></trkpt><trkpt lat="40.8227596" lon="14.8543089"><ele>501.0</ele><time>2026-04-25T08:34:29.165Z</time></trkpt><trkpt lat="40.8227042" lon="14.8543552"><ele>501.0</ele><time>2026-04-25T08:34:38.165Z</time></trkpt><trkpt lat="40.8226592" lon="14.8544155"><ele>501.0</ele><time>2026-04-25T08:34:45.187Z</time></trkpt><trkpt lat="40.8226058" lon="14.8544767"><ele>502.7142857142857</ele><time>2026-04-25T08:34:56.175Z</time></trkpt><trkpt lat="40.8225348" lon="14.8544798"><ele>504.42857142857144</ele><time>2026-04-25T08:35:05.21Z</time></trkpt><trkpt lat="40.8224755" lon="14.8545154"><ele>506.14285714285717</ele><time>2026-04-25T08:35:12.165Z</time></trkpt><trkpt lat="40.8224178" lon="14.8545619"><ele>507.8571428571429</ele><time>2026-04-25T08:35:20.171Z</time></trkpt><trkpt lat="40.8223635" lon="14.8546238"><ele>509.57142857142856</ele><time>2026-04-25T08:35:27.165Z</time></trkpt><trkpt lat="40.8223157" lon="14.8547028"><ele>511.28571428571433</ele><time>2026-04-25T08:35:42.165Z</time></trkpt><trkpt lat="40.8222444" lon="14.854688"><ele>513.0</ele><time>2026-04-25T08:35:49.165Z</time></trkpt><trkpt lat="40.8223082" lon="14.8546759"><ele>513.0000000000001</ele><time>2026-04-25T08:37:15.112Z</time></trkpt><trkpt lat="40.8223279" lon="14.8547621"><ele>513.0</ele><time>2026-04-25T08:38:42.21Z</time></trkpt><trkpt lat="40.8222977" lon="14.8548358"><ele>513.0</ele><time>2026-04-25T08:38:50.177Z</time></trkpt><trkpt lat="40.8222749" lon="14.8549234"><ele>513.0</ele><time>2026-04-25T08:38:59.165Z</time></trkpt><trkpt lat="40.822231" lon="14.8550031"><ele>513.0</ele><time>2026-04-25T08:39:05.21Z</time></trkpt><trkpt lat="40.8221814" lon="14.8550731"><ele>513.0000000000001</ele><time>2026-04-25T08:39:11.21Z</time></trkpt><trkpt lat="40.8221403" lon="14.8550073"><ele>513.0</ele><time>2026-04-25T08:39:21.21Z</time></trkpt><trkpt lat="40.8220719" lon="14.8550132"><ele>513.0000000000001</ele><time>2026-04-25T08:39:29.21Z</time></trkpt><trkpt lat="40.8220078" lon="14.8549782"><ele>513.0</ele><time>2026-04-25T08:39:41.165Z</time></trkpt><trkpt lat="40.8219429" lon="14.8549566"><ele>513.0</ele><time>2026-04-25T08:39:48.165Z</time></trkpt><trkpt lat="40.8218756" lon="14.8549301"><ele>513.0</ele><time>2026-04-25T08:39:55.936Z</time></trkpt><trkpt lat="40.8217978" lon="14.854953"><ele>513.0</ele><time>2026-04-25T08:40:12.165Z</time></trkpt><trkpt lat="40.8217362" lon="14.8549281"><ele>513.0000000000001</ele><time>2026-04-25T08:40:18.165Z</time></trkpt><trkpt lat="40.8216702" lon="14.8549295"><ele>513.0</ele><time>2026-04-25T08:40:26.165Z</time></trkpt><trkpt lat="40.8216065" lon="14.8548977"><ele>520.0</ele><time>2026-04-25T08:40:51.21Z</time></trkpt><trkpt lat="40.8216367" lon="14.8548094"><ele>520.0</ele><time>2026-04-25T08:41:01.165Z</time></trkpt><trkpt lat="40.8215729" lon="14.8548104"><ele>520.0</ele><time>2026-04-25T08:41:18.187Z</time></trkpt><trkpt lat="40.821506" lon="14.8548329"><ele>520.0</ele><time>2026-04-25T08:41:26.164Z</time></trkpt></trkseg><trkseg><trkpt lat="40.8214918" lon="14.8549769"><ele>520.0000000000001</ele><time>2026-04-25T08:52:11.167Z</time></trkpt><trkpt lat="40.8214174" lon="14.8549477"><ele>520.0</ele><time>2026-04-25T08:52:16.166Z</time></trkpt><trkpt lat="40.8213532" lon="14.8549593"><ele>520.0</ele><time>2026-04-25T08:52:25.166Z</time></trkpt><trkpt lat="40.8212926" lon="14.8549989"><ele>520.0</ele><time>2026-04-25T08:52:40.166Z</time></trkpt><trkpt lat="40.8212368" lon="14.8549553"><ele>520.0</ele><time>2026-04-25T08:52:50.166Z</time></trkpt><trkpt lat="40.8211704" lon="14.8549426"><ele>520.0000000000001</ele><time>2026-04-25T08:53:14.166Z</time></trkpt><trkpt lat="40.8211082" lon="14.8548996"><ele>520.0</ele><time>2026-04-25T08:53:32.192Z</time></trkpt><trkpt lat="40.8210414" lon="14.8548788"><ele>523.1428571428572</ele><time>2026-04-25T08:53:40.166Z</time></trkpt><trkpt lat="40.8209722" lon="14.8548928"><ele>526.2857142857143</ele><time>2026-04-25T08:53:48.166Z</time></trkpt><trkpt lat="40.8209237" lon="14.8549493"><ele>529.4285714285714</ele><time>2026-04-25T08:54:36.167Z</time></trkpt><trkpt lat="40.8208428" lon="14.8549608"><ele>532.5714285714287</ele><time>2026-04-25T08:56:01.167Z</time></trkpt><trkpt lat="40.8207812" lon="14.8549346"><ele>535.7142857142858</ele><time>2026-04-25T08:56:17.167Z</time></trkpt><trkpt lat="40.82071" lon="14.8549247"><ele>538.8571428571429</ele><time>2026-04-25T08:56:39.167Z</time></trkpt><trkpt lat="40.8206356" lon="14.8549035"><ele>542.0</ele><time>2026-04-25T08:56:47.167Z</time></trkpt><trkpt lat="40.8205672" lon="14.8548798"><ele>542.0</ele><time>2026-04-25T08:56:59.167Z</time></trkpt><trkpt lat="40.8205056" lon="14.8548185"><ele>542.0</ele><time>2026-04-25T08:57:09.167Z</time></trkpt><trkpt lat="40.820441" lon="14.8547985"><ele>542.0</ele><time>2026-04-25T08:57:15.167Z</time></trkpt><trkpt lat="40.8203745" lon="14.8548012"><ele>542.0</ele><time>2026-04-25T08:57:25.152Z</time></trkpt><trkpt lat="40.8203229" lon="14.8548557"><ele>542.0</ele><time>2026-04-25T08:57:34.167Z</time></trkpt><trkpt lat="40.8202685" lon="14.8548995"><ele>542.0</ele><time>2026-04-25T08:57:43.167Z</time></trkpt><trkpt lat="40.8202032" lon="14.8548982"><ele>542.0</ele><time>2026-04-25T08:58:02.167Z</time></trkpt><trkpt lat="40.8201389" lon="14.8548753"><ele>544.5714285714286</ele><time>2026-04-25T08:58:10.192Z</time></trkpt><trkpt lat="40.8200756" lon="14.8548882"><ele>547.1428571428571</ele><time>2026-04-25T08:58:17.167Z</time></trkpt><trkpt lat="40.8200138" lon="14.8549072"><ele>549.7142857142858</ele><time>2026-04-25T08:58:45.167Z</time></trkpt><trkpt lat="40.8199462" lon="14.8549078"><ele>552.2857142857142</ele><time>2026-04-25T08:58:56.167Z</time></trkpt><trkpt lat="40.8198739" lon="14.8549106"><ele>554.8571428571429</ele><time>2026-04-25T08:59:06.167Z</time></trkpt><trkpt lat="40.8198093" lon="14.8548851"><ele>557.4285714285714</ele><time>2026-04-25T08:59:15.204Z</time></trkpt><trkpt lat="40.8197454" lon="14.8548579"><ele>560.0</ele><time>2026-04-25T08:59:44.167Z</time></trkpt><trkpt lat="40.8196999" lon="14.8547969"><ele>560.0</ele><time>2026-04-25T09:00:02.167Z</time></trkpt><trkpt lat="40.8196202" lon="14.8547147"><ele>560.0</ele><time>2026-04-25T09:00:22.198Z</time></trkpt><trkpt lat="40.8195572" lon="14.8547308"><ele>560.0</ele><time>2026-04-25T09:00:33.112Z</time></trkpt><trkpt lat="40.8195094" lon="14.8546743"><ele>560.0</ele><time>2026-04-25T09:00:41.167Z</time></trkpt><trkpt lat="40.8194653" lon="14.854611"><ele>560.0</ele><time>2026-04-25T09:00:49.157Z</time></trkpt><trkpt lat="40.819397" lon="14.8545779"><ele>560.0</ele><time>2026-04-25T09:00:58.177Z</time></trkpt><trkpt lat="40.8193368" lon="14.8545332"><ele>560.0</ele><time>2026-04-25T09:01:07.169Z</time></trkpt><trkpt lat="40.8192828" lon="14.854482"><ele>561.2857142857143</ele><time>2026-04-25T09:01:14.071Z</time></trkpt><trkpt lat="40.8192206" lon="14.8545039"><ele>562.5714285714286</ele><time>2026-04-25T09:01:27.167Z</time></trkpt><trkpt lat="40.8191558" lon="14.8545231"><ele>563.8571428571429</ele><time>2026-04-25T09:01:36.138Z</time></trkpt><trkpt lat="40.8190892" lon="14.8545047"><ele>565.1428571428571</ele><time>2026-04-25T09:01:44.184Z</time></trkpt><trkpt lat="40.8190251" lon="14.8544917"><ele>566.4285714285714</ele><time>2026-04-25T09:01:51.167Z</time></trkpt><trkpt lat="40.8189581" lon="14.854484"><ele>567.7142857142858</ele><time>2026-04-25T09:02:00.167Z</time></trkpt><trkpt lat="40.8188931" lon="14.8544843"><ele>569.0</ele><time>2026-04-25T09:02:05.167Z</time></trkpt><trkpt lat="40.8188294" lon="14.8545308"><ele>569.0000000000001</ele><time>2026-04-25T09:02:13.167Z</time></trkpt><trkpt lat="40.8187712" lon="14.8545828"><ele>569.0</ele><time>2026-04-25T09:02:22.167Z</time></trkpt><trkpt lat="40.818708" lon="14.8545914"><ele>569.0</ele><time>2026-04-25T09:02:33.212Z</time></trkpt><trkpt lat="40.8187562" lon="14.854645"><ele>569.0</ele><time>2026-04-25T09:03:31.204Z</time></trkpt><trkpt lat="40.8186949" lon="14.8546859"><ele>569.0</ele><time>2026-04-25T09:03:44.167Z</time></trkpt><trkpt lat="40.8186319" lon="14.8547331"><ele>569.0000000000001</ele><time>2026-04-25T09:05:51.167Z</time></trkpt><trkpt lat="40.8185745" lon="14.8547688"><ele>569.0</ele><time>2026-04-25T09:05:58.167Z</time></trkpt><trkpt lat="40.8185056" lon="14.8546499"><ele>570.7142857142858</ele><time>2026-04-25T09:07:13.167Z</time></trkpt><trkpt lat="40.8184452" lon="14.8546066"><ele>572.4285714285714</ele><time>2026-04-25T09:07:25.174Z</time></trkpt><trkpt lat="40.8183759" lon="14.8546018"><ele>574.1428571428571</ele><time>2026-04-25T09:07:50.17Z</time></trkpt><trkpt lat="40.8183116" lon="14.8545823"><ele>575.8571428571429</ele><time>2026-04-25T09:08:01.17Z</time></trkpt><trkpt lat="40.8182482" lon="14.8545434"><ele>577.5714285714286</ele><time>2026-04-25T09:08:09.167Z</time></trkpt><trkpt lat="40.8181807" lon="14.8545337"><ele>579.2857142857143</ele><time>2026-04-25T09:17:37.167Z</time></trkpt><trkpt lat="40.8182098" lon="14.854453"><ele>581.0</ele><time>2026-04-25T09:19:09.167Z</time></trkpt><trkpt lat="40.8181938" lon="14.8543721"><ele>581.0</ele><time>2026-04-25T09:19:15.167Z</time></trkpt><trkpt lat="40.8181344" lon="14.8544145"><ele>581.0</ele><time>2026-04-25T09:19:25.167Z</time></trkpt><trkpt lat="40.8180668" lon="14.8544321"><ele>581.0</ele><time>2026-04-25T09:19:36.167Z</time></trkpt><trkpt lat="40.8179987" lon="14.854435"><ele>581.0</ele><time>2026-04-25T09:19:55.167Z</time></trkpt><trkpt lat="40.8179298" lon="14.854437"><ele>581.0</ele><time>2026-04-25T09:19:59.167Z</time></trkpt><trkpt lat="40.8178681" lon="14.8544066"><ele>581.0</ele><time>2026-04-25T09:20:07.167Z</time></trkpt><trkpt lat="40.8178049" lon="14.8544162"><ele>581.0</ele><time>2026-04-25T09:20:14.167Z</time></trkpt><trkpt lat="40.8177396" lon="14.8544436"><ele>581.0</ele><time>2026-04-25T09:20:21.167Z</time></trkpt><trkpt lat="40.8177059" lon="14.8545376"><ele>581.0</ele><time>2026-04-25T09:20:40.108Z</time></trkpt><trkpt lat="40.8176841" lon="14.8546217"><ele>581.0</ele><time>2026-04-25T09:21:07.167Z</time></trkpt><trkpt lat="40.8176506" lon="14.8546968"><ele>581.0</ele><time>2026-04-25T09:21:24.167Z</time></trkpt><trkpt lat="40.817613" lon="14.8547639"><ele>581.0</ele><time>2026-04-25T09:21:39.167Z</time></trkpt><trkpt lat="40.8176041" lon="14.8548542"><ele>581.0</ele><time>2026-04-25T09:21:48.168Z</time></trkpt><trkpt lat="40.8175743" lon="14.8549366"><ele>581.0</ele><time>2026-04-25T09:22:07.18Z</time></trkpt><trkpt lat="40.8175302" lon="14.8550087"><ele>582.8571428571429</ele><time>2026-04-25T09:22:38.167Z</time></trkpt><trkpt lat="40.8174595" lon="14.8549872"><ele>584.7142857142858</ele><time>2026-04-25T09:22:44.167Z</time></trkpt><trkpt lat="40.8173971" lon="14.8549596"><ele>586.5714285714286</ele><time>2026-04-25T09:22:53.167Z</time></trkpt><trkpt lat="40.8173337" lon="14.8549833"><ele>588.4285714285714</ele><time>2026-04-25T09:23:08.167Z</time></trkpt><trkpt lat="40.8172558" lon="14.855041"><ele>590.2857142857143</ele><time>2026-04-25T09:23:47.167Z</time></trkpt><trkpt lat="40.817324" lon="14.8550721"><ele>592.1428571428571</ele><time>2026-04-25T09:24:07.167Z</time></trkpt><trkpt lat="40.8174008" lon="14.8550724"><ele>594.0</ele><time>2026-04-25T09:24:40.167Z</time></trkpt><trkpt lat="40.8174462" lon="14.8551334"><ele>609.0</ele><time>2026-04-25T09:24:46.173Z</time></trkpt><trkpt lat="40.8173843" lon="14.8551107"><ele>594.0</ele><time>2026-04-25T09:24:59.17Z</time></trkpt><trkpt lat="40.8173078" lon="14.8552568"><ele>609.0</ele><time>2026-04-25T09:26:15.167Z</time></trkpt><trkpt lat="40.8172663" lon="14.8553305"><ele>609.0</ele><time>2026-04-25T09:26:27.167Z</time></trkpt><trkpt lat="40.8172229" lon="14.8554042"><ele>609.0</ele><time>2026-04-25T09:26:36.113Z</time></trkpt></trkseg><trkseg><trkpt lat="40.8171692" lon="14.8554465"><ele>609.0</ele><time>2026-04-25T09:41:52.199Z</time></trkpt><trkpt lat="40.8171058" lon="14.8554654"><ele>609.0</ele><time>2026-04-25T09:42:22.245Z</time></trkpt><trkpt lat="40.8170287" lon="14.8555068"><ele>609.0</ele><time>2026-04-25T09:42:37.198Z</time></trkpt><trkpt lat="40.81697" lon="14.8555389"><ele>609.0</ele><time>2026-04-25T09:42:47.171Z</time></trkpt><trkpt lat="40.8169215" lon="14.8555982"><ele>609.0</ele><time>2026-04-25T09:43:00.053Z</time></trkpt><trkpt lat="40.8168419" lon="14.8556301"><ele>609.0</ele><time>2026-04-25T09:43:28.198Z</time></trkpt><trkpt lat="40.8168943" lon="14.8555812"><ele>609.0</ele><time>2026-04-25T09:44:05.198Z</time></trkpt><trkpt lat="40.8168284" lon="14.8556123"><ele>610.8333333333334</ele><time>2026-04-25T09:45:07.202Z</time></trkpt><trkpt lat="40.8167486" lon="14.8556632"><ele>612.6666666666666</ele><time>2026-04-25T09:46:22.198Z</time></trkpt><trkpt lat="40.8167074" lon="14.8557368"><ele>614.5</ele><time>2026-04-25T09:46:35.17Z</time></trkpt><trkpt lat="40.816636" lon="14.855836"><ele>616.3333333333333</ele><time>2026-04-25T09:47:34.17Z</time></trkpt><trkpt lat="40.8165769" lon="14.8558755"><ele>618.1666666666666</ele><time>2026-04-25T09:47:43.198Z</time></trkpt><trkpt lat="40.8165214" lon="14.8559164"><ele>620.0</ele><time>2026-04-25T09:47:51.198Z</time></trkpt><trkpt lat="40.816456" lon="14.8559355"><ele>622.0</ele><time>2026-04-25T09:47:58.198Z</time></trkpt><trkpt lat="40.8163891" lon="14.8559775"><ele>624.0</ele><time>2026-04-25T09:48:09.17Z</time></trkpt><trkpt lat="40.8163243" lon="14.8559959"><ele>626.0</ele><time>2026-04-25T09:48:17.17Z</time></trkpt><trkpt lat="40.816219" lon="14.8560092"><ele>628.0</ele><time>2026-04-25T09:48:59.17Z</time></trkpt><trkpt lat="40.816153" lon="14.8560568"><ele>630.0</ele><time>2026-04-25T09:49:34.17Z</time></trkpt><trkpt lat="40.8160982" lon="14.8561566"><ele>632.0</ele><time>2026-04-25T09:50:14.198Z</time></trkpt><trkpt lat="40.8160435" lon="14.856198"><ele>632.0000000000001</ele><time>2026-04-25T09:50:21.132Z</time></trkpt><trkpt lat="40.8159867" lon="14.8562348"><ele>632.0</ele><time>2026-04-25T09:50:36.091Z</time></trkpt><trkpt lat="40.8160503" lon="14.8562499"><ele>632.0</ele><time>2026-04-25T09:53:01.198Z</time></trkpt><trkpt lat="40.8161131" lon="14.8562412"><ele>632.0</ele><time>2026-04-25T09:53:16.198Z</time></trkpt><trkpt lat="40.8160576" lon="14.856284"><ele>632.0</ele><time>2026-04-25T09:53:31.198Z</time></trkpt><trkpt lat="40.8159718" lon="14.8562903"><ele>632.0000000000001</ele><time>2026-04-25T09:54:30.198Z</time></trkpt><trkpt lat="40.8160335" lon="14.8563304"><ele>632.0</ele><time>2026-04-25T09:54:52.213Z</time></trkpt><trkpt lat="40.8161002" lon="14.8562987"><ele>632.0000000000001</ele><time>2026-04-25T09:54:58.198Z</time></trkpt><trkpt lat="40.8161642" lon="14.8563165"><ele>632.0</ele><time>2026-04-25T09:55:11.077Z</time></trkpt><trkpt lat="40.8161553" lon="14.8564014"><ele>632.0</ele><time>2026-04-25T09:55:27.215Z</time></trkpt><trkpt lat="40.8161063" lon="14.8564549"><ele>632.0</ele><time>2026-04-25T09:55:37.193Z</time></trkpt><trkpt lat="40.8161285" lon="14.8565399"><ele>632.0</ele><time>2026-04-25T09:55:48.198Z</time></trkpt><trkpt lat="40.8160854" lon="14.856604"><ele>632.0000000000001</ele><time>2026-04-25T09:56:28.176Z</time></trkpt><trkpt lat="40.8160801" lon="14.856687"><ele>632.0</ele><time>2026-04-25T09:56:37.209Z</time></trkpt><trkpt lat="40.8160448" lon="14.8567625"><ele>635.1428571428572</ele><time>2026-04-25T09:56:46.198Z</time></trkpt><trkpt lat="40.8159898" lon="14.8568079"><ele>638.2857142857143</ele><time>2026-04-25T09:56:52.244Z</time></trkpt><trkpt lat="40.81593" lon="14.8568526"><ele>641.4285714285714</ele><time>2026-04-25T09:56:59.256Z</time></trkpt><trkpt lat="40.8158741" lon="14.856916"><ele>644.5714285714287</ele><time>2026-04-25T09:57:07.198Z</time></trkpt><trkpt lat="40.815806" lon="14.8569272"><ele>647.7142857142858</ele><time>2026-04-25T09:57:15.195Z</time></trkpt><trkpt lat="40.8157441" lon="14.8569537"><ele>650.8571428571429</ele><time>2026-04-25T09:57:22.202Z</time></trkpt><trkpt lat="40.8156759" lon="14.85695"><ele>654.0</ele><time>2026-04-25T09:57:32.198Z</time></trkpt><trkpt lat="40.8156113" lon="14.856991"><ele>654.5714285714286</ele><time>2026-04-25T09:57:45.203Z</time></trkpt><trkpt lat="40.815546" lon="14.8570136"><ele>655.1428571428571</ele><time>2026-04-25T09:57:53.198Z</time></trkpt><trkpt lat="40.8154632" lon="14.8570403"><ele>655.7142857142858</ele><time>2026-04-25T10:01:29.198Z</time></trkpt><trkpt lat="40.815398" lon="14.8570027"><ele>656.2857142857142</ele><time>2026-04-25T10:01:36.198Z</time></trkpt><trkpt lat="40.8153484" lon="14.8569466"><ele>656.8571428571429</ele><time>2026-04-25T10:01:44.198Z</time></trkpt><trkpt lat="40.8152901" lon="14.8569103"><ele>657.4285714285714</ele><time>2026-04-25T10:01:53.198Z</time></trkpt><trkpt lat="40.8152211" lon="14.8569168"><ele>658.0</ele><time>2026-04-25T10:02:06.169Z</time></trkpt><trkpt lat="40.8151624" lon="14.8569527"><ele>660.2857142857143</ele><time>2026-04-25T10:02:16.194Z</time></trkpt><trkpt lat="40.8151011" lon="14.856976"><ele>662.5714285714286</ele><time>2026-04-25T10:02:24.198Z</time></trkpt><trkpt lat="40.8150512" lon="14.8570279"><ele>664.8571428571429</ele><time>2026-04-25T10:02:33.221Z</time></trkpt><trkpt lat="40.8150027" lon="14.8570832"><ele>667.1428571428571</ele><time>2026-04-25T10:02:44.221Z</time></trkpt><trkpt lat="40.8149401" lon="14.8570645"><ele>669.4285714285714</ele><time>2026-04-25T10:02:50.198Z</time></trkpt><trkpt lat="40.8148742" lon="14.8570439"><ele>671.7142857142858</ele><time>2026-04-25T10:02:59.198Z</time></trkpt><trkpt lat="40.8148112" lon="14.8570257"><ele>674.0</ele><time>2026-04-25T10:03:07.198Z</time></trkpt><trkpt lat="40.8147471" lon="14.8570274"><ele>674.0000000000001</ele><time>2026-04-25T10:03:16.204Z</time></trkpt><trkpt lat="40.814678" lon="14.857048"><ele>674.0</ele><time>2026-04-25T10:03:25.199Z</time></trkpt><trkpt lat="40.814619" lon="14.8570159"><ele>674.0</ele><time>2026-04-25T10:03:32.198Z</time></trkpt><trkpt lat="40.8145495" lon="14.8570168"><ele>674.0</ele><time>2026-04-25T10:03:41.235Z</time></trkpt><trkpt lat="40.8145022" lon="14.8569532"><ele>674.0</ele><time>2026-04-25T10:03:50.198Z</time></trkpt><trkpt lat="40.8144833" lon="14.8568668"><ele>674.0000000000001</ele><time>2026-04-25T10:03:58.198Z</time></trkpt><trkpt lat="40.8144241" lon="14.856826"><ele>674.0</ele><time>2026-04-25T10:04:11.215Z</time></trkpt><trkpt lat="40.8143613" lon="14.8568384"><ele>674.0000000000001</ele><time>2026-04-25T10:04:36.198Z</time></trkpt><trkpt lat="40.8143038" lon="14.8567468"><ele>674.0</ele><time>2026-04-25T10:05:31.198Z</time></trkpt><trkpt lat="40.8143534" lon="14.8568088"><ele>674.0</ele><time>2026-04-25T10:05:39.134Z</time></trkpt><trkpt lat="40.8144175" lon="14.8568327"><ele>674.0</ele><time>2026-04-25T10:05:49.256Z</time></trkpt><trkpt lat="40.8144794" lon="14.8568769"><ele>674.0</ele><time>2026-04-25T10:06:03.198Z</time></trkpt><trkpt lat="40.8144766" lon="14.856966"><ele>674.0000000000001</ele><time>2026-04-25T10:06:11.169Z</time></trkpt><trkpt lat="40.8144131" lon="14.8569999"><ele>674.0</ele><time>2026-04-25T10:06:18.198Z</time></trkpt><trkpt lat="40.8143734" lon="14.8570735"><ele>676.4285714285714</ele><time>2026-04-25T10:06:29.13Z</time></trkpt><trkpt lat="40.8143053" lon="14.8571279"><ele>678.8571428571429</ele><time>2026-04-25T10:06:47.074Z</time></trkpt><trkpt lat="40.8142631" lon="14.8571903"><ele>681.2857142857142</ele><time>2026-04-25T10:06:58.198Z</time></trkpt><trkpt lat="40.8141956" lon="14.8572335"><ele>683.7142857142858</ele><time>2026-04-25T10:07:04.198Z</time></trkpt><trkpt lat="40.814118" lon="14.8572198"><ele>686.1428571428571</ele><time>2026-04-25T10:07:20.198Z</time></trkpt><trkpt lat="40.8140457" lon="14.8571913"><ele>688.5714285714286</ele><time>2026-04-25T10:07:29.198Z</time></trkpt><trkpt lat="40.8139786" lon="14.85719"><ele>691.0</ele><time>2026-04-25T10:07:37.195Z</time></trkpt><trkpt lat="40.813914" lon="14.8572088"><ele>691.0</ele><time>2026-04-25T10:07:45.198Z</time></trkpt><trkpt lat="40.8138474" lon="14.8572183"><ele>691.0</ele><time>2026-04-25T10:07:53.169Z</time></trkpt><trkpt lat="40.8137828" lon="14.8572075"><ele>691.0</ele><time>2026-04-25T10:08:15.109Z</time></trkpt><trkpt lat="40.8137077" lon="14.8573011"><ele>691.0</ele><time>2026-04-25T10:08:45.169Z</time></trkpt></trkseg><trkseg><trkpt lat="40.8135925" lon="14.8573617"><ele>690.9999999999999</ele><time>2026-04-25T11:04:07.191Z</time></trkpt><trkpt lat="40.8135396" lon="14.857428"><ele>691.0</ele><time>2026-04-25T11:04:54.193Z</time></trkpt><trkpt lat="40.8134811" lon="14.8574755"><ele>691.0</ele><time>2026-04-25T11:05:04.155Z</time></trkpt><trkpt lat="40.8134178" lon="14.8575027"><ele>691.0</ele><time>2026-04-25T11:05:19.193Z</time></trkpt><trkpt lat="40.8133656" lon="14.8575705"><ele>691.0</ele><time>2026-04-25T11:05:29.286Z</time></trkpt><trkpt lat="40.8132966" lon="14.8575978"><ele>690.9999999999999</ele><time>2026-04-25T11:05:43.193Z</time></trkpt><trkpt lat="40.8132745" lon="14.857691"><ele>691.0</ele><time>2026-04-25T11:06:00.242Z</time></trkpt><trkpt lat="40.8132125" lon="14.8576484"><ele>693.8571428571428</ele><time>2026-04-25T11:06:08.206Z</time></trkpt><trkpt lat="40.813153" lon="14.8576106"><ele>696.7142857142857</ele><time>2026-04-25T11:06:17.193Z</time></trkpt><trkpt lat="40.813103" lon="14.8576659"><ele>699.5714285714286</ele><time>2026-04-25T11:06:28.282Z</time></trkpt><trkpt lat="40.8130537" lon="14.8576126"><ele>702.4285714285713</ele><time>2026-04-25T11:06:35.237Z</time></trkpt><trkpt lat="40.8129922" lon="14.857641"><ele>705.2857142857142</ele><time>2026-04-25T11:06:43.201Z</time></trkpt><trkpt lat="40.8129437" lon="14.8576993"><ele>708.1428571428571</ele><time>2026-04-25T11:07:04.193Z</time></trkpt><trkpt lat="40.8128788" lon="14.8577132"><ele>711.0</ele><time>2026-04-25T11:07:17.193Z</time></trkpt><trkpt lat="40.8128149" lon="14.8577276"><ele>715.2857142857143</ele><time>2026-04-25T11:07:28.269Z</time></trkpt><trkpt lat="40.812749" lon="14.8577076"><ele>719.5714285714286</ele><time>2026-04-25T11:07:37.256Z</time></trkpt><trkpt lat="40.8126787" lon="14.8577186"><ele>723.8571428571429</ele><time>2026-04-25T11:07:43.202Z</time></trkpt><trkpt lat="40.8126156" lon="14.8577632"><ele>728.1428571428571</ele><time>2026-04-25T11:07:54.269Z</time></trkpt><trkpt lat="40.812569" lon="14.8578199"><ele>732.4285714285714</ele><time>2026-04-25T11:08:44.216Z</time></trkpt><trkpt lat="40.8125119" lon="14.8578665"><ele>736.7142857142857</ele><time>2026-04-25T11:08:54.123Z</time></trkpt><trkpt lat="40.8125284" lon="14.85795"><ele>741.0</ele><time>2026-04-25T11:09:02.183Z</time></trkpt><trkpt lat="40.8124785" lon="14.8580024"><ele>742.7142857142857</ele><time>2026-04-25T11:09:15.09Z</time></trkpt><trkpt lat="40.8124094" lon="14.8580333"><ele>744.4285714285714</ele><time>2026-04-25T11:09:23.252Z</time></trkpt><trkpt lat="40.8123451" lon="14.8580339"><ele>746.1428571428571</ele><time>2026-04-25T11:09:30.21Z</time></trkpt><trkpt lat="40.8122765" lon="14.8580413"><ele>747.8571428571429</ele><time>2026-04-25T11:09:38.283Z</time></trkpt><trkpt lat="40.8122087" lon="14.8580413"><ele>749.5714285714287</ele><time>2026-04-25T11:09:45.235Z</time></trkpt><trkpt lat="40.8121466" lon="14.8580621"><ele>751.2857142857143</ele><time>2026-04-25T11:09:52.192Z</time></trkpt><trkpt lat="40.8120817" lon="14.8580847"><ele>753.0</ele><time>2026-04-25T11:09:59.253Z</time></trkpt><trkpt lat="40.8120416" lon="14.8581502"><ele>753.0</ele><time>2026-04-25T11:10:06.206Z</time></trkpt><trkpt lat="40.8119923" lon="14.8582086"><ele>753.0</ele><time>2026-04-25T11:10:14.163Z</time></trkpt><trkpt lat="40.8119301" lon="14.8582407"><ele>753.0</ele><time>2026-04-25T11:10:22.285Z</time></trkpt><trkpt lat="40.811885" lon="14.8583038"><ele>753.0</ele><time>2026-04-25T11:10:28.192Z</time></trkpt><trkpt lat="40.8118302" lon="14.8583497"><ele>753.0</ele><time>2026-04-25T11:10:35.254Z</time></trkpt><trkpt lat="40.8118302" lon="14.8583497"><ele>753.0</ele><time>2026-04-25T11:10:35.254Z</time></trkpt><trkpt lat="40.8117726" lon="14.8583914"><ele>753.0</ele><time>2026-04-25T11:19:37.02Z</time></trkpt><trkpt lat="40.811722" lon="14.8584438"><ele>753.0</ele><time>2026-04-25T11:19:49.192Z</time></trkpt><trkpt lat="40.8116566" lon="14.8584487"><ele>758.4285714285714</ele><time>2026-04-25T11:20:01.28Z</time></trkpt><trkpt lat="40.8115909" lon="14.8584541"><ele>763.8571428571429</ele><time>2026-04-25T11:20:15.208Z</time></trkpt><trkpt lat="40.8115301" lon="14.8584809"><ele>769.2857142857142</ele><time>2026-04-25T11:20:27.215Z</time></trkpt><trkpt lat="40.8114698" lon="14.8585246"><ele>774.7142857142858</ele><time>2026-04-25T11:20:35.192Z</time></trkpt><trkpt lat="40.811406" lon="14.8585476"><ele>780.1428571428571</ele><time>2026-04-25T11:20:43.256Z</time></trkpt><trkpt lat="40.8113461" lon="14.8585911"><ele>785.5714285714286</ele><time>2026-04-25T11:20:51.228Z</time></trkpt><trkpt lat="40.8112818" lon="14.8586238"><ele>791.0</ele><time>2026-04-25T11:20:59.193Z</time></trkpt><trkpt lat="40.8112294" lon="14.858673"><ele>791.0</ele><time>2026-04-25T11:21:07.192Z</time></trkpt><trkpt lat="40.81116" lon="14.8586827"><ele>791.0</ele><time>2026-04-25T11:21:14.192Z</time></trkpt><trkpt lat="40.8110911" lon="14.8586881"><ele>791.0</ele><time>2026-04-25T11:21:20.101Z</time></trkpt><trkpt lat="40.811021" lon="14.858715"><ele>791.0</ele><time>2026-04-25T11:21:27.238Z</time></trkpt><trkpt lat="40.8109548" lon="14.8587272"><ele>791.0</ele><time>2026-04-25T11:21:34.196Z</time></trkpt><trkpt lat="40.8108919" lon="14.8587105"><ele>791.0</ele><time>2026-04-25T11:21:39.192Z</time></trkpt><trkpt lat="40.8108324" lon="14.8586523"><ele>791.0</ele><time>2026-04-25T11:21:45.192Z</time></trkpt><trkpt lat="40.8107863" lon="14.8585883"><ele>791.5714285714286</ele><time>2026-04-25T11:21:53.192Z</time></trkpt><trkpt lat="40.8107521" lon="14.8585164"><ele>792.1428571428571</ele><time>2026-04-25T11:21:59.214Z</time></trkpt><trkpt lat="40.8106917" lon="14.8584786"><ele>792.7142857142858</ele><time>2026-04-25T11:22:06.192Z</time></trkpt><trkpt lat="40.8106236" lon="14.8584889"><ele>793.2857142857142</ele><time>2026-04-25T11:22:12.222Z</time></trkpt><trkpt lat="40.8105616" lon="14.8585039"><ele>793.8571428571429</ele><time>2026-04-25T11:22:19.192Z</time></trkpt><trkpt lat="40.8105199" lon="14.8585749"><ele>794.4285714285714</ele><time>2026-04-25T11:22:29.192Z</time></trkpt><trkpt lat="40.8105427" lon="14.8586624"><ele>795.0</ele><time>2026-04-25T11:22:37.236Z</time></trkpt><trkpt lat="40.8105472" lon="14.8587539"><ele>795.0</ele><time>2026-04-25T11:22:45.198Z</time></trkpt><trkpt lat="40.8105107" lon="14.8588271"><ele>795.0</ele><time>2026-04-25T11:22:52.192Z</time></trkpt><trkpt lat="40.8104846" lon="14.8589162"><ele>795.0</ele><time>2026-04-25T11:23:03.256Z</time></trkpt><trkpt lat="40.81043" lon="14.8589614"><ele>795.0</ele><time>2026-04-25T11:23:12.227Z</time></trkpt><trkpt lat="40.8103609" lon="14.8589666"><ele>795.0</ele><time>2026-04-25T11:23:29.191Z</time></trkpt><trkpt lat="40.8103182" lon="14.8590369"><ele>795.0</ele><time>2026-04-25T11:23:36.123Z</time></trkpt><trkpt lat="40.8102513" lon="14.8590699"><ele>795.0</ele><time>2026-04-25T11:23:43.191Z</time></trkpt><trkpt lat="40.8101863" lon="14.8590835"><ele>795.0</ele><time>2026-04-25T11:23:49.233Z</time></trkpt></trkseg><trkseg><trkpt lat="40.8089893" lon="14.8611611"><ele>888.9999999999999</ele><time>2026-04-25T11:38:01.118Z</time></trkpt><trkpt lat="40.8089188" lon="14.8611075"><ele>889.0</ele><time>2026-04-25T11:40:15.191Z</time></trkpt><trkpt lat="40.808866" lon="14.8610576"><ele>889.0</ele><time>2026-04-25T11:40:56.191Z</time></trkpt><trkpt lat="40.8088041" lon="14.8610341"><ele>889.0</ele><time>2026-04-25T11:41:49.219Z</time></trkpt><trkpt lat="40.8087468" lon="14.8611129"><ele>888.9999999999999</ele><time>2026-04-25T11:43:25.19Z</time></trkpt><trkpt lat="40.8088383" lon="14.8611167"><ele>889.0</ele><time>2026-04-25T11:44:02.19Z</time></trkpt><trkpt lat="40.8088972" lon="14.8611652"><ele>889.0</ele><time>2026-04-25T11:45:04.19Z</time></trkpt><trkpt lat="40.8088758" lon="14.8612539"><ele>889.0</ele><time>2026-04-25T11:45:23.19Z</time></trkpt><trkpt lat="40.8088191" lon="14.8612959"><ele>889.0</ele><time>2026-04-25T11:45:35.19Z</time></trkpt><trkpt lat="40.8087692" lon="14.8613586"><ele>889.0</ele><time>2026-04-25T11:45:47.19Z</time></trkpt><trkpt lat="40.8087064" lon="14.8613691"><ele>889.0</ele><time>2026-04-25T11:46:21.222Z</time></trkpt><trkpt lat="40.8086519" lon="14.8614175"><ele>889.0</ele><time>2026-04-25T11:47:43.19Z</time></trkpt><trkpt lat="40.8085844" lon="14.8614561"><ele>889.0</ele><time>2026-04-25T11:47:53.219Z</time></trkpt><trkpt lat="40.8085484" lon="14.8615245"><ele>889.0</ele><time>2026-04-25T11:48:03.193Z</time></trkpt><trkpt lat="40.8085019" lon="14.8615895"><ele>889.0</ele><time>2026-04-25T11:48:17.141Z</time></trkpt><trkpt lat="40.8084435" lon="14.8616358"><ele>889.0</ele><time>2026-04-25T11:48:29.197Z</time></trkpt><trkpt lat="40.8083978" lon="14.8615735"><ele>889.0</ele><time>2026-04-25T11:49:25.003Z</time></trkpt><trkpt lat="40.8083382" lon="14.8616178"><ele>889.0</ele><time>2026-04-25T11:49:38.19Z</time></trkpt><trkpt lat="40.8082753" lon="14.8615943"><ele>889.0</ele><time>2026-04-25T11:49:51.19Z</time></trkpt><trkpt lat="40.8082113" lon="14.8615561"><ele>889.0</ele><time>2026-04-25T11:50:01.19Z</time></trkpt><trkpt lat="40.8081441" lon="14.8615624"><ele>888.1428571428571</ele><time>2026-04-25T11:50:15.19Z</time></trkpt><trkpt lat="40.8080805" lon="14.8615776"><ele>887.2857142857142</ele><time>2026-04-25T11:50:26.19Z</time></trkpt><trkpt lat="40.8080057" lon="14.8615892"><ele>886.4285714285714</ele><time>2026-04-25T11:50:35.221Z</time></trkpt><trkpt lat="40.8079456" lon="14.8616208"><ele>885.5714285714286</ele><time>2026-04-25T11:50:54.19Z</time></trkpt><trkpt lat="40.8078646" lon="14.8616525"><ele>884.7142857142857</ele><time>2026-04-25T11:51:20.19Z</time></trkpt><trkpt lat="40.8078015" lon="14.8616764"><ele>883.8571428571429</ele><time>2026-04-25T11:51:32.19Z</time></trkpt><trkpt lat="40.8077582" lon="14.8617422"><ele>883.0</ele><time>2026-04-25T11:52:12.202Z</time></trkpt><trkpt lat="40.8077303" lon="14.8618197"><ele>883.4</ele><time>2026-04-25T11:52:23.19Z</time></trkpt><trkpt lat="40.807638" lon="14.8617587"><ele>883.8</ele><time>2026-04-25T11:56:24.189Z</time></trkpt><trkpt lat="40.8075976" lon="14.8616917"><ele>884.2</ele><time>2026-04-25T11:56:38.189Z</time></trkpt><trkpt lat="40.8075445" lon="14.8617495"><ele>884.6</ele><time>2026-04-25T11:57:05.189Z</time></trkpt><trkpt lat="40.8075069" lon="14.861908"><ele>885.0</ele><time>2026-04-25T12:06:45.189Z</time></trkpt><trkpt lat="40.8074087" lon="14.8620348"><ele>889.5</ele><time>2026-04-25T12:07:12.189Z</time></trkpt><trkpt lat="40.8073637" lon="14.8620946"><ele>894.0</ele><time>2026-04-25T12:07:27.194Z</time></trkpt><trkpt lat="40.8072587" lon="14.8621681"><ele>898.5</ele><time>2026-04-25T12:08:20.2Z</time></trkpt><trkpt lat="40.8072" lon="14.8622108"><ele>903.0</ele><time>2026-04-25T12:08:25.244Z</time></trkpt><trkpt lat="40.80715" lon="14.8622682"><ele>907.5</ele><time>2026-04-25T12:08:41.189Z</time></trkpt><trkpt lat="40.807124" lon="14.8623466"><ele>912.0</ele><time>2026-04-25T12:08:54.189Z</time></trkpt><trkpt lat="40.8070723" lon="14.8624086"><ele>912.0</ele><time>2026-04-25T12:09:54.188Z</time></trkpt><trkpt lat="40.8070116" lon="14.862442"><ele>911.9999999999999</ele><time>2026-04-25T12:10:15.237Z</time></trkpt><trkpt lat="40.8069542" lon="14.862492"><ele>912.0</ele><time>2026-04-25T12:10:29.188Z</time></trkpt><trkpt lat="40.8068994" lon="14.8625424"><ele>912.0</ele><time>2026-04-25T12:10:41.239Z</time></trkpt><trkpt lat="40.8068746" lon="14.8626201"><ele>911.9999999999999</ele><time>2026-04-25T12:11:29.226Z</time></trkpt><trkpt lat="40.8068144" lon="14.8626527"><ele>912.0</ele><time>2026-04-25T12:11:35.189Z</time></trkpt><trkpt lat="40.8067615" lon="14.8627056"><ele>912.0</ele><time>2026-04-25T12:11:42.142Z</time></trkpt><trkpt lat="40.8066999" lon="14.8627605"><ele>917.25</ele><time>2026-04-25T12:11:51.192Z</time></trkpt><trkpt lat="40.8066297" lon="14.8627913"><ele>922.5</ele><time>2026-04-25T12:11:59.189Z</time></trkpt><trkpt lat="40.8065952" lon="14.8628655"><ele>927.75</ele><time>2026-04-25T12:12:08.232Z</time></trkpt><trkpt lat="40.8065345" lon="14.8629549"><ele>933.0</ele><time>2026-04-25T12:13:25.188Z</time></trkpt><trkpt lat="40.8065345" lon="14.8629549"><ele>938.25</ele><time>2026-04-25T12:13:25.188Z</time></trkpt><trkpt lat="40.8065345" lon="14.8629549"><ele>943.5</ele><time>2026-04-25T12:13:25.188Z</time></trkpt><trkpt lat="40.8064976" lon="14.863092"><ele>948.75</ele><time>2026-04-25T12:20:48.188Z</time></trkpt><trkpt lat="40.8064556" lon="14.863169"><ele>954.0</ele><time>2026-04-25T12:20:56.188Z</time></trkpt><trkpt lat="40.8064179" lon="14.8632393"><ele>954.0</ele><time>2026-04-25T12:21:05.22Z</time></trkpt><trkpt lat="40.8064216" lon="14.8633226"><ele>953.9999999999999</ele><time>2026-04-25T12:21:14.211Z</time></trkpt><trkpt lat="40.8063893" lon="14.8633961"><ele>954.0</ele><time>2026-04-25T12:21:23.203Z</time></trkpt><trkpt lat="40.8063466" lon="14.8634654"><ele>954.0</ele><time>2026-04-25T12:21:33.123Z</time></trkpt><trkpt lat="40.8063212" lon="14.8635441"><ele>953.9999999999999</ele><time>2026-04-25T12:21:39.188Z</time></trkpt><trkpt lat="40.806295" lon="14.8636536"><ele>954.0</ele><time>2026-04-25T12:22:11.188Z</time></trkpt><trkpt lat="40.8062608" lon="14.8637684"><ele>954.0</ele><time>2026-04-25T12:22:46.188Z</time></trkpt><trkpt lat="40.806216" lon="14.863835"><ele>958.1666666666666</ele><time>2026-04-25T12:22:55.238Z</time></trkpt><trkpt lat="40.806182" lon="14.8639363"><ele>962.3333333333333</ele><time>2026-04-25T12:23:38.188Z</time></trkpt><trkpt lat="40.8060855" lon="14.8640654"><ele>966.5</ele><time>2026-04-25T12:24:50.248Z</time></trkpt><trkpt lat="40.8060428" lon="14.8641286"><ele>970.6666666666666</ele><time>2026-04-25T12:24:57.193Z</time></trkpt><trkpt lat="40.805988" lon="14.8641763"><ele>974.8333333333333</ele><time>2026-04-25T12:25:09.213Z</time></trkpt><trkpt lat="40.8059413" lon="14.8642355"><ele>979.0</ele><time>2026-04-25T12:25:19.21Z</time></trkpt><trkpt lat="40.806008" lon="14.8643259"><ele>982.7142857142857</ele><time>2026-04-25T12:25:57.188Z</time></trkpt><trkpt lat="40.8060582" lon="14.8643844"><ele>986.4285714285716</ele><time>2026-04-25T12:26:07.188Z</time></trkpt><trkpt lat="40.8061256" lon="14.8644017"><ele>990.1428571428572</ele><time>2026-04-25T12:26:27.188Z</time></trkpt><trkpt lat="40.806135" lon="14.8645289"><ele>993.8571428571429</ele><time>2026-04-25T12:28:54.213Z</time></trkpt><trkpt lat="40.8060855" lon="14.8646091"><ele>997.5714285714287</ele><time>2026-04-25T12:29:07.25Z</time></trkpt><trkpt lat="40.8060271" lon="14.8646617"><ele>1001.2857142857144</ele><time>2026-04-25T12:29:27.189Z</time></trkpt><trkpt lat="40.8059958" lon="14.8647344"><ele>1005.0000000000001</ele><time>2026-04-25T12:29:55.208Z</time></trkpt><trkpt lat="40.8059429" lon="14.8647839"><ele>1006.8333333333334</ele><time>2026-04-25T12:30:12.205Z</time></trkpt><trkpt lat="40.8059344" lon="14.8648673"><ele>1008.6666666666667</ele><time>2026-04-25T12:32:20.123Z</time></trkpt><trkpt lat="40.8059121" lon="14.8649504"><ele>1010.5</ele><time>2026-04-25T12:32:35.187Z</time></trkpt><trkpt lat="40.8058526" lon="14.8649937"><ele>1012.3333333333334</ele><time>2026-04-25T12:32:48.187Z</time></trkpt><trkpt lat="40.8057919" lon="14.8650311"><ele>1014.1666666666667</ele><time>2026-04-25T12:33:08.213Z</time></trkpt><trkpt lat="40.8057308" lon="14.8650795"><ele>1016.0</ele><time>2026-04-25T12:33:20.231Z</time></trkpt><trkpt lat="40.8055925" lon="14.8651708"><ele>1020.4285714285714</ele><time>2026-04-25T12:34:21.187Z</time></trkpt><trkpt lat="40.8055428" lon="14.8652378"><ele>1024.857142857143</ele><time>2026-04-25T12:34:33.238Z</time></trkpt><trkpt lat="40.8054909" lon="14.8652873"><ele>1029.2857142857142</ele><time>2026-04-25T12:34:40.201Z</time></trkpt><trkpt lat="40.8054323" lon="14.8653246"><ele>1033.7142857142858</ele><time>2026-04-25T12:34:49.187Z</time></trkpt><trkpt lat="40.8053855" lon="14.8653877"><ele>1038.142857142857</ele><time>2026-04-25T12:35:34.229Z</time></trkpt><trkpt lat="40.8053372" lon="14.8654749"><ele>1042.5714285714287</ele><time>2026-04-25T12:35:55.17Z</time></trkpt><trkpt lat="40.8053013" lon="14.8655509"><ele>1047.0</ele><time>2026-04-25T12:36:07.187Z</time></trkpt><trkpt lat="40.8052704" lon="14.8656417"><ele>1047.0000000000002</ele><time>2026-04-25T12:37:30.187Z</time></trkpt><trkpt lat="40.805205" lon="14.865649"><ele>1047.0</ele><time>2026-04-25T12:38:21.228Z</time></trkpt><trkpt lat="40.8051745" lon="14.8657303"><ele>1047.0</ele><time>2026-04-25T12:38:44.187Z</time></trkpt><trkpt lat="40.8051542" lon="14.8658808"><ele>1047.0</ele><time>2026-04-25T12:39:31.187Z</time></trkpt><trkpt lat="40.8051055" lon="14.8659381"><ele>1047.0</ele><time>2026-04-25T12:40:39.214Z</time></trkpt><trkpt lat="40.8050451" lon="14.8659712"><ele>1047.0000000000002</ele><time>2026-04-25T12:40:55.187Z</time></trkpt><trkpt lat="40.8049864" lon="14.8660013"><ele>1047.0</ele><time>2026-04-25T12:41:10.227Z</time></trkpt><trkpt lat="40.804963" lon="14.8660792"><ele>1053.857142857143</ele><time>2026-04-25T12:42:47.215Z</time></trkpt><trkpt lat="40.8049661" lon="14.866168"><ele>1060.7142857142858</ele><time>2026-04-25T12:44:17.187Z</time></trkpt><trkpt lat="40.8049059" lon="14.8661982"><ele>1067.5714285714284</ele><time>2026-04-25T12:44:52.186Z</time></trkpt><trkpt lat="40.8048548" lon="14.8662579"><ele>1074.4285714285716</ele><time>2026-04-25T12:45:18.228Z</time></trkpt><trkpt lat="40.804835" lon="14.8663371"><ele>1081.2857142857142</ele><time>2026-04-25T12:46:01.204Z</time></trkpt><trkpt lat="40.8048095" lon="14.8664143"><ele>1088.142857142857</ele><time>2026-04-25T12:49:54.186Z</time></trkpt><trkpt lat="40.8047736" lon="14.8664855"><ele>1095.0</ele><time>2026-04-25T12:50:35.186Z</time></trkpt><trkpt lat="40.8047832" lon="14.8665742"><ele>1095.0</ele><time>2026-04-25T12:50:57.186Z</time></trkpt><trkpt lat="40.804743" lon="14.8666842"><ele>1095.0</ele><time>2026-04-25T12:51:41.186Z</time></trkpt><trkpt lat="40.8046766" lon="14.8667165"><ele>1095.0</ele><time>2026-04-25T12:51:48.218Z</time></trkpt><trkpt lat="40.8046338" lon="14.866795"><ele>1132.0</ele><time>2026-04-25T12:53:07.228Z</time></trkpt></trkseg><trkseg><trkpt lat="40.8046238" lon="14.8667046"><ele>1094.9999999999998</ele><time>2026-04-25T13:33:00.218Z</time></trkpt><trkpt lat="40.8045713" lon="14.8667529"><ele>1095.0</ele><time>2026-04-25T13:33:10.195Z</time></trkpt><trkpt lat="40.8045181" lon="14.8667071"><ele>1095.0</ele><time>2026-04-25T13:33:18.195Z</time></trkpt><trkpt lat="40.8044744" lon="14.866626"><ele>1095.0</ele><time>2026-04-25T13:33:43.195Z</time></trkpt><trkpt lat="40.8044088" lon="14.8665108"><ele>1095.0</ele><time>2026-04-25T13:34:05.222Z</time></trkpt><trkpt lat="40.8043657" lon="14.8664407"><ele>1094.9999999999998</ele><time>2026-04-25T13:34:16.204Z</time></trkpt><trkpt lat="40.8043028" lon="14.8664229"><ele>1095.0</ele><time>2026-04-25T13:34:31.219Z</time></trkpt><trkpt lat="40.8043108" lon="14.8665077"><ele>1097.9999999999998</ele><time>2026-04-25T13:35:53.195Z</time></trkpt><trkpt lat="40.804316" lon="14.8665919"><ele>1101.0</ele><time>2026-04-25T13:36:04.195Z</time></trkpt><trkpt lat="40.8042621" lon="14.86664"><ele>1104.0</ele><time>2026-04-25T13:36:35.195Z</time></trkpt><trkpt lat="40.8042015" lon="14.8667032"><ele>1107.0</ele><time>2026-04-25T13:37:02.211Z</time></trkpt><trkpt lat="40.8041273" lon="14.8667247"><ele>1110.0</ele><time>2026-04-25T13:37:45.195Z</time></trkpt><trkpt lat="40.8040764" lon="14.866774"><ele>1112.9999999999998</ele><time>2026-04-25T13:37:54.195Z</time></trkpt><trkpt lat="40.8040234" lon="14.8667237"><ele>1116.0</ele><time>2026-04-25T13:40:21.203Z</time></trkpt><trkpt lat="40.8039524" lon="14.8667283"><ele>1115.9999999999998</ele><time>2026-04-25T13:40:35.208Z</time></trkpt><trkpt lat="40.8038893" lon="14.8667627"><ele>1116.0</ele><time>2026-04-25T13:40:45.195Z</time></trkpt><trkpt lat="40.8038301" lon="14.8668001"><ele>1116.0</ele><time>2026-04-25T13:40:54.195Z</time></trkpt><trkpt lat="40.8038899" lon="14.8668562"><ele>1116.0</ele><time>2026-04-25T13:42:28.195Z</time></trkpt><trkpt lat="40.8038668" lon="14.866939"><ele>1116.0</ele><time>2026-04-25T13:42:41.195Z</time></trkpt><trkpt lat="40.8038355" lon="14.8670112"><ele>1115.9999999999998</ele><time>2026-04-25T13:42:59.198Z</time></trkpt><trkpt lat="40.8038541" lon="14.8671028"><ele>1116.0</ele><time>2026-04-25T13:43:18.195Z</time></trkpt><trkpt lat="40.8038379" lon="14.8671836"><ele>1121.5</ele><time>2026-04-25T13:43:32.174Z</time></trkpt><trkpt lat="40.8038101" lon="14.8672674"><ele>1127.0</ele><time>2026-04-25T13:43:58.195Z</time></trkpt><trkpt lat="40.8036949" lon="14.867307"><ele>1132.5</ele><time>2026-04-25T13:45:22.195Z</time></trkpt><trkpt lat="40.8036298" lon="14.8673578"><ele>1138.0</ele><time>2026-04-25T13:45:44.195Z</time></trkpt><trkpt lat="40.8035634" lon="14.867376"><ele>1143.5</ele><time>2026-04-25T13:45:57.198Z</time></trkpt><trkpt lat="40.8035083" lon="14.8674628"><ele>1149.0</ele><time>2026-04-25T13:47:04.195Z</time></trkpt><trkpt lat="40.8035428" lon="14.8675503"><ele>1156.0</ele><time>2026-04-25T13:47:24.201Z</time></trkpt><trkpt lat="40.8035067" lon="14.8676676"><ele>1163.0</ele><time>2026-04-25T13:47:52.195Z</time></trkpt><trkpt lat="40.8034421" lon="14.8676784"><ele>1170.0</ele><time>2026-04-25T13:48:04.195Z</time></trkpt><trkpt lat="40.8033947" lon="14.8677336"><ele>1177.0</ele><time>2026-04-25T13:49:02.197Z</time></trkpt><trkpt lat="40.8033616" lon="14.8678052"><ele>1184.0</ele><time>2026-04-25T13:49:39.195Z</time></trkpt><trkpt lat="40.8033026" lon="14.86784"><ele>1191.0</ele><time>2026-04-25T13:49:52.056Z</time></trkpt><trkpt lat="40.8032474" lon="14.8678848"><ele>1198.0</ele><time>2026-04-25T13:50:42.194Z</time></trkpt><trkpt lat="40.8031992" lon="14.8679457"><ele>1204.6666666666665</ele><time>2026-04-25T13:53:23.194Z</time></trkpt><trkpt lat="40.8031683" lon="14.8680216"><ele>1211.3333333333333</ele><time>2026-04-25T13:53:58.194Z</time></trkpt><trkpt lat="40.8030916" lon="14.8681493"><ele>1218.0</ele><time>2026-04-25T13:56:56.194Z</time></trkpt><trkpt lat="40.8030362" lon="14.8682223"><ele>1224.6666666666667</ele><time>2026-04-25T13:58:24.194Z</time></trkpt><trkpt lat="40.8029844" lon="14.8682763"><ele>1231.3333333333335</ele><time>2026-04-25T13:59:29.194Z</time></trkpt><trkpt lat="40.8029164" lon="14.8682395"><ele>1238.0</ele><time>2026-04-25T13:59:56.194Z</time></trkpt><trkpt lat="40.8028501" lon="14.8682576"><ele>1238.0</ele><time>2026-04-25T14:01:07.194Z</time></trkpt><trkpt lat="40.8027527" lon="14.8681665"><ele>1238.0</ele><time>2026-04-25T14:02:24.194Z</time></trkpt><trkpt lat="40.8026942" lon="14.8681357"><ele>1238.0</ele><time>2026-04-25T14:03:00.194Z</time></trkpt><trkpt lat="40.8026411" lon="14.8680822"><ele>1238.0</ele><time>2026-04-25T14:03:33.118Z</time></trkpt><trkpt lat="40.8026113" lon="14.8680019"><ele>1238.0</ele><time>2026-04-25T14:04:07.194Z</time></trkpt><trkpt lat="40.8025553" lon="14.8679573"><ele>1238.0</ele><time>2026-04-25T14:04:19.194Z</time></trkpt><trkpt lat="40.8025045" lon="14.8679074"><ele>1238.0</ele><time>2026-04-25T14:04:32.194Z</time></trkpt><trkpt lat="40.8024453" lon="14.8679847"><ele>1242.4285714285713</ele><time>2026-04-25T14:06:33.193Z</time></trkpt><trkpt lat="40.8024335" lon="14.8680682"><ele>1246.857142857143</ele><time>2026-04-25T14:08:53.193Z</time></trkpt><trkpt lat="40.8024075" lon="14.8681763"><ele>1251.2857142857142</ele><time>2026-04-25T14:10:17.193Z</time></trkpt><trkpt lat="40.8023882" lon="14.8682637"><ele>1255.7142857142858</ele><time>2026-04-25T14:11:05.193Z</time></trkpt><trkpt lat="40.8023226" lon="14.8682746"><ele>1260.142857142857</ele><time>2026-04-25T14:11:35.193Z</time></trkpt><trkpt lat="40.8022426" lon="14.8682963"><ele>1264.5714285714287</ele><time>2026-04-25T14:12:15.193Z</time></trkpt><trkpt lat="40.8021829" lon="14.8683443"><ele>1269.0</ele><time>2026-04-25T14:12:24.202Z</time></trkpt><trkpt lat="40.8021166" lon="14.8683846"><ele>1269.0</ele><time>2026-04-25T14:12:30.193Z</time></trkpt><trkpt lat="40.8020569" lon="14.8684271"><ele>1269.0</ele><time>2026-04-25T14:12:50.193Z</time></trkpt><trkpt lat="40.8020031" lon="14.8683801"><ele>1269.0</ele><time>2026-04-25T14:13:00.193Z</time></trkpt><trkpt lat="40.8019294" lon="14.8682881"><ele>1269.0</ele><time>2026-04-25T14:13:56.193Z</time></trkpt><trkpt lat="40.8018832" lon="14.8682277"><ele>1269.0</ele><time>2026-04-25T14:14:04.193Z</time></trkpt><trkpt lat="40.8019347" lon="14.8683599"><ele>1269.0</ele><time>2026-04-25T14:17:39.212Z</time></trkpt><trkpt lat="40.8019958" lon="14.8683391"><ele>1269.0</ele><time>2026-04-25T14:18:21.192Z</time></trkpt><trkpt lat="40.8020416" lon="14.8684161"><ele>1269.0</ele><time>2026-04-25T14:18:29.192Z</time></trkpt><trkpt lat="40.8020004" lon="14.8684888"><ele>1269.0</ele><time>2026-04-25T14:18:39.192Z</time></trkpt><trkpt lat="40.801991" lon="14.8685725"><ele>1269.0</ele><time>2026-04-25T14:18:47.192Z</time></trkpt><trkpt lat="40.8020101" lon="14.8684915"><ele>1269.0</ele><time>2026-04-25T14:19:41.192Z</time></trkpt><trkpt lat="40.8020553" lon="14.868431"><ele>1269.0</ele><time>2026-04-25T14:20:00.192Z</time></trkpt><trkpt lat="40.8020967" lon="14.8683656"><ele>1269.0</ele><time>2026-04-25T14:20:21.192Z</time></trkpt><trkpt lat="40.802153" lon="14.8683149"><ele>1269.0</ele><time>2026-04-25T14:20:25.928Z</time></trkpt><trkpt lat="40.8021996" lon="14.8682576"><ele>1269.0</ele><time>2026-04-25T14:20:30.192Z</time></trkpt><trkpt lat="40.8022417" lon="14.8681827"><ele>1269.0</ele><time>2026-04-25T14:20:38.165Z</time></trkpt><trkpt lat="40.8023603" lon="14.8681967"><ele>1269.0</ele><time>2026-04-25T14:22:06.192Z</time></trkpt><trkpt lat="40.8024004" lon="14.8681234"><ele>1269.0</ele><time>2026-04-25T14:23:55.228Z</time></trkpt><trkpt lat="40.8024384" lon="14.8680315"><ele>1269.0</ele><time>2026-04-25T14:24:41.192Z</time></trkpt><trkpt lat="40.802398" lon="14.8679188"><ele>1269.0</ele><time>2026-04-25T14:26:01.192Z</time></trkpt><trkpt lat="40.8024758" lon="14.8679064"><ele>1269.0</ele><time>2026-04-25T14:27:04.13Z</time></trkpt><trkpt lat="40.8025396" lon="14.8679417"><ele>1269.0</ele><time>2026-04-25T14:27:16.192Z</time></trkpt><trkpt lat="40.8025929" lon="14.8679909"><ele>1269.0</ele><time>2026-04-25T14:27:26.192Z</time></trkpt><trkpt lat="40.8026013" lon="14.8680936"><ele>1269.0</ele><time>2026-04-25T14:27:56.192Z</time></trkpt><trkpt lat="40.8026674" lon="14.8681094"><ele>1269.0</ele><time>2026-04-25T14:29:47.192Z</time></trkpt><trkpt lat="40.8027282" lon="14.8681452"><ele>1269.0</ele><time>2026-04-25T14:29:59.192Z</time></trkpt><trkpt lat="40.8027816" lon="14.8681901"><ele>1263.8333333333333</ele><time>2026-04-25T14:31:02.192Z</time></trkpt><trkpt lat="40.8028453" lon="14.8682451"><ele>1258.6666666666667</ele><time>2026-04-25T14:31:22.207Z</time></trkpt><trkpt lat="40.802915" lon="14.86822"><ele>1253.5</ele><time>2026-04-25T14:31:32.228Z</time></trkpt><trkpt lat="40.8030221" lon="14.8682697"><ele>1248.3333333333335</ele><time>2026-04-25T14:31:58.192Z</time></trkpt><trkpt lat="40.8030887" lon="14.8682118"><ele>1243.1666666666667</ele><time>2026-04-25T14:32:24.192Z</time></trkpt><trkpt lat="40.8030978" lon="14.8681195"><ele>1238.0</ele><time>2026-04-25T14:34:07.192Z</time></trkpt><trkpt lat="40.8031175" lon="14.8680203"><ele>1238.0</ele><time>2026-04-25T14:35:02.192Z</time></trkpt><trkpt lat="40.8032047" lon="14.8679591"><ele>1238.0</ele><time>2026-04-25T14:38:23.191Z</time></trkpt><trkpt lat="40.8032397" lon="14.8678774"><ele>1238.0</ele><time>2026-04-25T14:39:03.191Z</time></trkpt><trkpt lat="40.8033199" lon="14.8678229"><ele>1238.0</ele><time>2026-04-25T14:39:41.191Z</time></trkpt><trkpt lat="40.8033542" lon="14.8677502"><ele>1238.0</ele><time>2026-04-25T14:39:57.191Z</time></trkpt><trkpt lat="40.8034173" lon="14.8677191"><ele>1238.0</ele><time>2026-04-25T14:40:20.193Z</time></trkpt><trkpt lat="40.8034916" lon="14.8676729"><ele>1228.3333333333335</ele><time>2026-04-25T14:40:46.232Z</time></trkpt><trkpt lat="40.8035364" lon="14.8676091"><ele>1218.6666666666667</ele><time>2026-04-25T14:40:59.218Z</time></trkpt><trkpt lat="40.8034786" lon="14.8675549"><ele>1209.0</ele><time>2026-04-25T14:41:22.191Z</time></trkpt><trkpt lat="40.8034987" lon="14.8674623"><ele>1199.3333333333333</ele><time>2026-04-25T14:41:41.151Z</time></trkpt><trkpt lat="40.8035383" lon="14.8673975"><ele>1189.6666666666665</ele><time>2026-04-25T14:42:05.191Z</time></trkpt><trkpt lat="40.8036452" lon="14.8673479"><ele>1180.0</ele><time>2026-04-25T14:42:32.191Z</time></trkpt><trkpt lat="40.8037163" lon="14.8673398"><ele>1175.5714285714287</ele><time>2026-04-25T14:42:58.214Z</time></trkpt><trkpt lat="40.8037948" lon="14.8673088"><ele>1171.142857142857</ele><time>2026-04-25T14:44:05.191Z</time></trkpt><trkpt lat="40.8038154" lon="14.8672266"><ele>1166.7142857142858</ele><time>2026-04-25T14:44:14.235Z</time></trkpt><trkpt lat="40.803822" lon="14.8671431"><ele>1162.2857142857142</ele><time>2026-04-25T14:44:29.191Z</time></trkpt><trkpt lat="40.8038063" lon="14.8670618"><ele>1157.857142857143</ele><time>2026-04-25T14:47:49.191Z</time></trkpt><trkpt lat="40.8038324" lon="14.8669777"><ele>1153.4285714285716</ele><time>2026-04-25T14:48:00.191Z</time></trkpt><trkpt lat="40.8038697" lon="14.8668949"><ele>1149.0</ele><time>2026-04-25T14:48:07.191Z</time></trkpt><trkpt lat="40.8038126" lon="14.8668458"><ele>1149.0</ele><time>2026-04-25T14:50:56.191Z</time></trkpt><trkpt lat="40.8038727" lon="14.8668728"><ele>1149.0</ele><time>2026-04-25T14:51:34.191Z</time></trkpt><trkpt lat="40.8037971" lon="14.8668713"><ele>1149.0</ele><time>2026-04-25T14:51:54.191Z</time></trkpt><trkpt lat="40.8038626" lon="14.8668297"><ele>1149.0</ele><time>2026-04-25T14:53:08.191Z</time></trkpt></trkseg><trkseg><trkpt lat="40.803845" lon="14.8667713"><ele>1115.9999999999998</ele><time>2026-04-25T15:49:27.21Z</time></trkpt><trkpt lat="40.8038994" lon="14.8667278"><ele>1116.0</ele><time>2026-04-25T15:49:34.213Z</time></trkpt><trkpt lat="40.8039633" lon="14.8667215"><ele>1116.0</ele><time>2026-04-25T15:49:40.108Z</time></trkpt><trkpt lat="40.8040278" lon="14.8667026"><ele>1116.0</ele><time>2026-04-25T15:49:55.21Z</time></trkpt><trkpt lat="40.8040874" lon="14.866756"><ele>1116.0</ele><time>2026-04-25T15:50:07.223Z</time></trkpt><trkpt lat="40.8041521" lon="14.8667528"><ele>1115.9999999999998</ele><time>2026-04-25T15:50:31.188Z</time></trkpt><trkpt lat="40.804205" lon="14.8666865"><ele>1116.0</ele><time>2026-04-25T15:50:55.21Z</time></trkpt><trkpt lat="40.804274" lon="14.8666684"><ele>1115.9999999999998</ele><time>2026-04-25T15:51:14.221Z</time></trkpt><trkpt lat="40.8043176" lon="14.8665989"><ele>1116.0</ele><time>2026-04-25T15:51:29.26Z</time></trkpt><trkpt lat="40.8043315" lon="14.8665105"><ele>1116.0</ele><time>2026-04-25T15:51:37.129Z</time></trkpt><trkpt lat="40.8043249" lon="14.8664221"><ele>1116.0</ele><time>2026-04-25T15:51:51.21Z</time></trkpt><trkpt lat="40.8043925" lon="14.8664494"><ele>1116.0</ele><time>2026-04-25T15:52:23.237Z</time></trkpt><trkpt lat="40.8044137" lon="14.8665288"><ele>1115.9999999999998</ele><time>2026-04-25T15:52:29.21Z</time></trkpt><trkpt lat="40.8044555" lon="14.8665981"><ele>1116.0</ele><time>2026-04-25T15:52:43.212Z</time></trkpt><trkpt lat="40.80449" lon="14.8666694"><ele>1112.9999999999998</ele><time>2026-04-25T15:53:05.21Z</time></trkpt><trkpt lat="40.8045195" lon="14.8667497"><ele>1110.0</ele><time>2026-04-25T15:53:53.268Z</time></trkpt><trkpt lat="40.8045842" lon="14.8667612"><ele>1107.0</ele><time>2026-04-25T15:54:00.222Z</time></trkpt><trkpt lat="40.8046515" lon="14.8667403"><ele>1104.0</ele><time>2026-04-25T15:54:05.21Z</time></trkpt><trkpt lat="40.8047057" lon="14.8666931"><ele>1101.0</ele><time>2026-04-25T15:54:20.093Z</time></trkpt><trkpt lat="40.8047646" lon="14.8666584"><ele>1097.9999999999998</ele><time>2026-04-25T15:55:17.219Z</time></trkpt><trkpt lat="40.8048027" lon="14.8665901"><ele>1095.0</ele><time>2026-04-25T15:55:37.21Z</time></trkpt><trkpt lat="40.8048475" lon="14.8664513"><ele>1095.0</ele><time>2026-04-25T15:56:06.221Z</time></trkpt><trkpt lat="40.8049131" lon="14.8663837"><ele>1095.0</ele><time>2026-04-25T15:56:26.192Z</time></trkpt><trkpt lat="40.8049309" lon="14.8663014"><ele>1095.0</ele><time>2026-04-25T15:56:41.216Z</time></trkpt><trkpt lat="40.8049391" lon="14.8662114"><ele>1095.0</ele><time>2026-04-25T15:56:57.21Z</time></trkpt><trkpt lat="40.8049835" lon="14.8661486"><ele>1095.0</ele><time>2026-04-25T15:57:11.21Z</time></trkpt><trkpt lat="40.8049723" lon="14.8660639"><ele>1095.0</ele><time>2026-04-25T15:57:25.146Z</time></trkpt><trkpt lat="40.8050311" lon="14.8659356"><ele>1089.3333333333333</ele><time>2026-04-25T15:57:54.21Z</time></trkpt><trkpt lat="40.8050927" lon="14.8659053"><ele>1083.6666666666667</ele><time>2026-04-25T15:58:05.25Z</time></trkpt><trkpt lat="40.8051577" lon="14.8658641"><ele>1078.0</ele><time>2026-04-25T15:58:17.21Z</time></trkpt><trkpt lat="40.805183" lon="14.8657801"><ele>1072.3333333333335</ele><time>2026-04-25T15:58:29.007Z</time></trkpt><trkpt lat="40.8052182" lon="14.8657022"><ele>1066.6666666666667</ele><time>2026-04-25T15:58:41.21Z</time></trkpt><trkpt lat="40.8052464" lon="14.8656205"><ele>1061.0</ele><time>2026-04-25T15:58:54.21Z</time></trkpt><trkpt lat="40.8053282" lon="14.8654921"><ele>1058.6666666666667</ele><time>2026-04-25T16:02:39.21Z</time></trkpt><trkpt lat="40.8053657" lon="14.8654213"><ele>1056.3333333333335</ele><time>2026-04-25T16:02:47.21Z</time></trkpt><trkpt lat="40.805416" lon="14.8653619"><ele>1054.0</ele><time>2026-04-25T16:02:57.21Z</time></trkpt><trkpt lat="40.8054717" lon="14.8652968"><ele>1051.6666666666667</ele><time>2026-04-25T16:04:39.209Z</time></trkpt><trkpt lat="40.8055374" lon="14.8652586"><ele>1049.3333333333333</ele><time>2026-04-25T16:05:03.209Z</time></trkpt><trkpt lat="40.8056113" lon="14.8651732"><ele>1047.0</ele><time>2026-04-25T16:05:20.148Z</time></trkpt><trkpt lat="40.8056608" lon="14.8650999"><ele>1042.5714285714287</ele><time>2026-04-25T16:05:32.209Z</time></trkpt><trkpt lat="40.8057247" lon="14.8650577"><ele>1038.142857142857</ele><time>2026-04-25T16:05:45.209Z</time></trkpt><trkpt lat="40.8057879" lon="14.865013"><ele>1033.7142857142858</ele><time>2026-04-25T16:05:54.151Z</time></trkpt><trkpt lat="40.8058474" lon="14.8649828"><ele>1029.2857142857142</ele><time>2026-04-25T16:06:01.209Z</time></trkpt><trkpt lat="40.8059306" lon="14.8648987"><ele>1024.857142857143</ele><time>2026-04-25T16:06:25.219Z</time></trkpt><trkpt lat="40.8059492" lon="14.864817"><ele>1020.4285714285714</ele><time>2026-04-25T16:06:47.209Z</time></trkpt><trkpt lat="40.805983" lon="14.8647348"><ele>1016.0</ele><time>2026-04-25T16:07:14.209Z</time></trkpt><trkpt lat="40.8059965" lon="14.8646483"><ele>1014.1666666666667</ele><time>2026-04-25T16:07:29.209Z</time></trkpt><trkpt lat="40.8060683" lon="14.8646266"><ele>1012.3333333333334</ele><time>2026-04-25T16:07:36.233Z</time></trkpt><trkpt lat="40.8061227" lon="14.864568"><ele>1010.5</ele><time>2026-04-25T16:07:43.054Z</time></trkpt><trkpt lat="40.8061614" lon="14.8644589"><ele>1008.6666666666667</ele><time>2026-04-25T16:08:12.209Z</time></trkpt><trkpt lat="40.8061013" lon="14.864413"><ele>1006.8333333333334</ele><time>2026-04-25T16:08:25.209Z</time></trkpt><trkpt lat="40.8060491" lon="14.8643503"><ele>1005.0</ele><time>2026-04-25T16:08:31.209Z</time></trkpt><trkpt lat="40.8059692" lon="14.8642388"><ele>1001.1666666666666</ele><time>2026-04-25T16:09:14.209Z</time></trkpt><trkpt lat="40.8060094" lon="14.8641647"><ele>997.3333333333333</ele><time>2026-04-25T16:09:26.209Z</time></trkpt><trkpt lat="40.8060615" lon="14.8641145"><ele>993.5</ele><time>2026-04-25T16:09:33.209Z</time></trkpt><trkpt lat="40.8060925" lon="14.8640348"><ele>989.6666666666666</ele><time>2026-04-25T16:09:49.209Z</time></trkpt><trkpt lat="40.8061431" lon="14.863985"><ele>985.8333333333333</ele><time>2026-04-25T16:10:04.21Z</time></trkpt><trkpt lat="40.8062197" lon="14.8638335"><ele>982.0</ele><time>2026-04-25T16:11:38.209Z</time></trkpt><trkpt lat="40.8062409" lon="14.8637533"><ele>982.0</ele><time>2026-04-25T16:11:52.209Z</time></trkpt><trkpt lat="40.8062957" lon="14.8636575"><ele>981.9999999999999</ele><time>2026-04-25T16:12:14.209Z</time></trkpt><trkpt lat="40.806317" lon="14.863562"><ele>982.0</ele><time>2026-04-25T16:12:28.209Z</time></trkpt><trkpt lat="40.8063354" lon="14.8634817"><ele>982.0</ele><time>2026-04-25T16:12:37.209Z</time></trkpt><trkpt lat="40.8063787" lon="14.8634187"><ele>981.9999999999999</ele><time>2026-04-25T16:12:48.209Z</time></trkpt><trkpt lat="40.8064182" lon="14.8633383"><ele>982.0</ele><time>2026-04-25T16:13:02.22Z</time></trkpt><trkpt lat="40.8064304" lon="14.8632512"><ele>982.0</ele><time>2026-04-25T16:13:11.209Z</time></trkpt><trkpt lat="40.8064496" lon="14.8631635"><ele>978.0</ele><time>2026-04-25T16:13:19.212Z</time></trkpt><trkpt lat="40.8065023" lon="14.8631083"><ele>973.9999999999999</ele><time>2026-04-25T16:13:30.209Z</time></trkpt><trkpt lat="40.8065298" lon="14.863027"><ele>970.0</ele><time>2026-04-25T16:13:41.255Z</time></trkpt><trkpt lat="40.8065585" lon="14.8629505"><ele>966.0</ele><time>2026-04-25T16:13:46.237Z</time></trkpt><trkpt lat="40.8066007" lon="14.8628848"><ele>961.9999999999999</ele><time>2026-04-25T16:13:51.113Z</time></trkpt><trkpt lat="40.806667" lon="14.8628513"><ele>958.0</ele><time>2026-04-25T16:14:03.209Z</time></trkpt><trkpt lat="40.8067202" lon="14.8627828"><ele>954.0</ele><time>2026-04-25T16:14:08.189Z</time></trkpt><trkpt lat="40.8067597" lon="14.8627018"><ele>954.0</ele><time>2026-04-25T16:14:17.217Z</time></trkpt><trkpt lat="40.8068002" lon="14.862635"><ele>953.9999999999999</ele><time>2026-04-25T16:14:27.212Z</time></trkpt><trkpt lat="40.8068596" lon="14.8626034"><ele>954.0</ele><time>2026-04-25T16:14:36.209Z</time></trkpt><trkpt lat="40.8069066" lon="14.862543"><ele>954.0</ele><time>2026-04-25T16:14:48.209Z</time></trkpt><trkpt lat="40.806968" lon="14.8625187"><ele>953.9999999999999</ele><time>2026-04-25T16:15:02.209Z</time></trkpt><trkpt lat="40.8069998" lon="14.8624427"><ele>954.0</ele><time>2026-04-25T16:15:10.209Z</time></trkpt><trkpt lat="40.8070593" lon="14.8624013"><ele>954.0</ele><time>2026-04-25T16:15:34.209Z</time></trkpt><trkpt lat="40.8071229" lon="14.8623521"><ele>948.0</ele><time>2026-04-25T16:16:01.21Z</time></trkpt><trkpt lat="40.8071534" lon="14.8622755"><ele>941.9999999999999</ele><time>2026-04-25T16:16:14.228Z</time></trkpt><trkpt lat="40.807193" lon="14.8622045"><ele>936.0</ele><time>2026-04-25T16:16:23.209Z</time></trkpt><trkpt lat="40.8072562" lon="14.8621697"><ele>930.0</ele><time>2026-04-25T16:16:34.209Z</time></trkpt><trkpt lat="40.8073199" lon="14.8621639"><ele>923.9999999999999</ele><time>2026-04-25T16:16:48.223Z</time></trkpt><trkpt lat="40.8073654" lon="14.8620987"><ele>918.0</ele><time>2026-04-25T16:17:07.209Z</time></trkpt><trkpt lat="40.807407" lon="14.8620359"><ele>912.0</ele><time>2026-04-25T16:17:19.209Z</time></trkpt><trkpt lat="40.8074583" lon="14.8619765"><ele>912.0</ele><time>2026-04-25T16:17:41.209Z</time></trkpt><trkpt lat="40.8075146" lon="14.8619321"><ele>912.0</ele><time>2026-04-25T16:17:51.227Z</time></trkpt><trkpt lat="40.8075543" lon="14.8618631"><ele>912.0</ele><time>2026-04-25T16:18:04.209Z</time></trkpt><trkpt lat="40.8075311" lon="14.8617831"><ele>912.0</ele><time>2026-04-25T16:18:23.209Z</time></trkpt><trkpt lat="40.8076131" lon="14.8616342"><ele>912.0</ele><time>2026-04-25T16:19:09.209Z</time></trkpt><trkpt lat="40.8076536" lon="14.8615674"><ele>912.0</ele><time>2026-04-25T16:19:14.232Z</time></trkpt><trkpt lat="40.8076848" lon="14.8614873"><ele>907.1666666666666</ele><time>2026-04-25T16:20:03.209Z</time></trkpt><trkpt lat="40.8077742" lon="14.8613739"><ele>902.3333333333333</ele><time>2026-04-25T16:21:01.214Z</time></trkpt><trkpt lat="40.8078408" lon="14.8613791"><ele>897.5</ele><time>2026-04-25T16:21:06.209Z</time></trkpt><trkpt lat="40.8079299" lon="14.8613819"><ele>892.6666666666666</ele><time>2026-04-25T16:21:26.209Z</time></trkpt><trkpt lat="40.8079905" lon="14.8614261"><ele>887.8333333333333</ele><time>2026-04-25T16:21:31.209Z</time></trkpt><trkpt lat="40.8080586" lon="14.8614039"><ele>883.0</ele><time>2026-04-25T16:21:37.209Z</time></trkpt><trkpt lat="40.8081078" lon="14.8613502"><ele>882.9999999999999</ele><time>2026-04-25T16:21:41.16Z</time></trkpt><trkpt lat="40.8080703" lon="14.8612828"><ele>883.0</ele><time>2026-04-25T16:22:06.209Z</time></trkpt><trkpt lat="40.80811" lon="14.8612084"><ele>883.0</ele><time>2026-04-25T16:22:11.21Z</time></trkpt><trkpt lat="40.8081196" lon="14.8613091"><ele>883.0</ele><time>2026-04-25T16:23:33.209Z</time></trkpt><trkpt lat="40.8082041" lon="14.8612566"><ele>882.9999999999999</ele><time>2026-04-25T16:24:11.154Z</time></trkpt><trkpt lat="40.8083234" lon="14.8612116"><ele>883.0</ele><time>2026-04-25T16:24:46.208Z</time></trkpt><trkpt lat="40.8083735" lon="14.8611606"><ele>883.0</ele><time>2026-04-25T16:24:54.208Z</time></trkpt><trkpt lat="40.8084273" lon="14.8611121"><ele>883.0</ele><time>2026-04-25T16:25:26.197Z</time></trkpt><trkpt lat="40.8084746" lon="14.8610408"><ele>883.0</ele><time>2026-04-25T16:25:45.208Z</time></trkpt><trkpt lat="40.8085411" lon="14.8609776"><ele>883.0</ele><time>2026-04-25T16:26:05.119Z</time></trkpt><trkpt lat="40.8086034" lon="14.860937"><ele>883.0</ele><time>2026-04-25T16:26:10.14Z</time></trkpt><trkpt lat="40.8086557" lon="14.8608757"><ele>883.0</ele><time>2026-04-25T16:26:23.208Z</time></trkpt><trkpt lat="40.8086941" lon="14.8607963"><ele>883.0</ele><time>2026-04-25T16:26:42.208Z</time></trkpt><trkpt lat="40.808746" lon="14.8607422"><ele>878.8571428571429</ele><time>2026-04-25T16:26:50.232Z</time></trkpt><trkpt lat="40.8087855" lon="14.8606674"><ele>874.7142857142857</ele><time>2026-04-25T16:27:11.178Z</time></trkpt><trkpt lat="40.8087987" lon="14.8605709"><ele>870.5714285714286</ele><time>2026-04-25T16:27:30.208Z</time></trkpt><trkpt lat="40.8088315" lon="14.8604893"><ele>866.4285714285714</ele><time>2026-04-25T16:27:36.208Z</time></trkpt><trkpt lat="40.8088748" lon="14.8604117"><ele>862.2857142857142</ele><time>2026-04-25T16:27:53.217Z</time></trkpt><trkpt lat="40.8089078" lon="14.8603373"><ele>858.1428571428571</ele><time>2026-04-25T16:28:03.208Z</time></trkpt><trkpt lat="40.8089378" lon="14.8602313"><ele>854.0</ele><time>2026-04-25T16:28:27.229Z</time></trkpt><trkpt lat="40.8089846" lon="14.8601688"><ele>854.0000000000001</ele><time>2026-04-25T16:28:33.208Z</time></trkpt><trkpt lat="40.8090492" lon="14.8601625"><ele>854.0</ele><time>2026-04-25T16:29:08.229Z</time></trkpt><trkpt lat="40.809107" lon="14.8601007"><ele>854.0</ele><time>2026-04-25T16:30:08.208Z</time></trkpt><trkpt lat="40.8091756" lon="14.8600356"><ele>854.0</ele><time>2026-04-25T16:30:43.208Z</time></trkpt><trkpt lat="40.8092143" lon="14.8599605"><ele>854.0000000000001</ele><time>2026-04-25T16:31:15.208Z</time></trkpt><trkpt lat="40.8092769" lon="14.8598981"><ele>854.0</ele><time>2026-04-25T16:31:43.208Z</time></trkpt><trkpt lat="40.8092088" lon="14.8597915"><ele>849.3333333333334</ele><time>2026-04-25T16:32:21.208Z</time></trkpt><trkpt lat="40.8091744" lon="14.8597206"><ele>844.6666666666667</ele><time>2026-04-25T16:32:38.161Z</time></trkpt><trkpt lat="40.8092005" lon="14.8596157"><ele>840.0</ele><time>2026-04-25T16:33:28.208Z</time></trkpt><trkpt lat="40.8092695" lon="14.8595366"><ele>835.3333333333333</ele><time>2026-04-25T16:34:03.208Z</time></trkpt><trkpt lat="40.8093291" lon="14.8595058"><ele>830.6666666666666</ele><time>2026-04-25T16:34:25.208Z</time></trkpt><trkpt lat="40.8093691" lon="14.8593369"><ele>826.0</ele><time>2026-04-25T16:35:54.208Z</time></trkpt><trkpt lat="40.8093961" lon="14.8592084"><ele>820.1666666666666</ele><time>2026-04-25T16:37:06.208Z</time></trkpt><trkpt lat="40.809445" lon="14.8591514"><ele>814.3333333333333</ele><time>2026-04-25T16:39:15.208Z</time></trkpt><trkpt lat="40.8095671" lon="14.8591095"><ele>808.5</ele><time>2026-04-25T16:39:52.208Z</time></trkpt><trkpt lat="40.8096279" lon="14.8590537"><ele>802.6666666666667</ele><time>2026-04-25T16:40:02.233Z</time></trkpt><trkpt lat="40.8096682" lon="14.8589818"><ele>796.8333333333334</ele><time>2026-04-25T16:40:13.208Z</time></trkpt><trkpt lat="40.8096776" lon="14.8588933"><ele>791.0</ele><time>2026-04-25T16:40:18.208Z</time></trkpt><trkpt lat="40.8097288" lon="14.8588447"><ele>791.0</ele><time>2026-04-25T16:40:25.208Z</time></trkpt><trkpt lat="40.8097889" lon="14.8587931"><ele>791.0</ele><time>2026-04-25T16:40:59.23Z</time></trkpt><trkpt lat="40.8098478" lon="14.8587546"><ele>791.0</ele><time>2026-04-25T16:41:05.208Z</time></trkpt><trkpt lat="40.8099046" lon="14.8586973"><ele>791.0</ele><time>2026-04-25T16:41:12.209Z</time></trkpt><trkpt lat="40.80996" lon="14.8586288"><ele>791.0</ele><time>2026-04-25T16:41:18.208Z</time></trkpt><trkpt lat="40.8099986" lon="14.858556"><ele>791.0</ele><time>2026-04-25T16:41:24.205Z</time></trkpt><trkpt lat="40.8100342" lon="14.858484"><ele>791.0</ele><time>2026-04-25T16:41:48.207Z</time></trkpt><trkpt lat="40.8100739" lon="14.8584146"><ele>788.7142857142857</ele><time>2026-04-25T16:41:56.207Z</time></trkpt><trkpt lat="40.8101314" lon="14.8583614"><ele>786.4285714285714</ele><time>2026-04-25T16:42:02.211Z</time></trkpt><trkpt lat="40.8101775" lon="14.8582977"><ele>784.1428571428571</ele><time>2026-04-25T16:42:14.219Z</time></trkpt><trkpt lat="40.8102351" lon="14.8582259"><ele>781.8571428571429</ele><time>2026-04-25T16:42:22.207Z</time></trkpt><trkpt lat="40.8102879" lon="14.8581679"><ele>779.5714285714286</ele><time>2026-04-25T16:42:27.207Z</time></trkpt><trkpt lat="40.8103401" lon="14.8581084"><ele>777.2857142857142</ele><time>2026-04-25T16:42:34.118Z</time></trkpt><trkpt lat="40.8103891" lon="14.8580388"><ele>775.0</ele><time>2026-04-25T16:42:45.207Z</time></trkpt><trkpt lat="40.810442" lon="14.8579861"><ele>774.5714285714286</ele><time>2026-04-25T16:42:51.207Z</time></trkpt><trkpt lat="40.8104864" lon="14.8579211"><ele>774.1428571428571</ele><time>2026-04-25T16:42:57.207Z</time></trkpt><trkpt lat="40.810525" lon="14.8578501"><ele>773.7142857142858</ele><time>2026-04-25T16:43:03.207Z</time></trkpt><trkpt lat="40.8105732" lon="14.8577741"><ele>773.2857142857142</ele><time>2026-04-25T16:43:12.207Z</time></trkpt><trkpt lat="40.8106195" lon="14.857708"><ele>772.8571428571429</ele><time>2026-04-25T16:43:18.207Z</time></trkpt><trkpt lat="40.8106605" lon="14.8576399"><ele>772.4285714285714</ele><time>2026-04-25T16:43:24.254Z</time></trkpt><trkpt lat="40.8107092" lon="14.8575861"><ele>772.0</ele><time>2026-04-25T16:43:30.207Z</time></trkpt><trkpt lat="40.8107821" lon="14.8575563"><ele>770.4285714285714</ele><time>2026-04-25T16:43:36.214Z</time></trkpt><trkpt lat="40.8108417" lon="14.8575227"><ele>768.8571428571429</ele><time>2026-04-25T16:43:42.207Z</time></trkpt><trkpt lat="40.8109059" lon="14.8574952"><ele>767.2857142857142</ele><time>2026-04-25T16:43:49.175Z</time></trkpt><trkpt lat="40.8109685" lon="14.8574696"><ele>765.7142857142858</ele><time>2026-04-25T16:44:05.134Z</time></trkpt><trkpt lat="40.8110329" lon="14.8575203"><ele>764.1428571428571</ele><time>2026-04-25T16:44:12.207Z</time></trkpt><trkpt lat="40.8110914" lon="14.8575638"><ele>762.5714285714286</ele><time>2026-04-25T16:44:20.207Z</time></trkpt><trkpt lat="40.8111608" lon="14.8576058"><ele>761.0</ele><time>2026-04-25T16:44:50.262Z</time></trkpt><trkpt lat="40.8112262" lon="14.8576437"><ele>760.9999999999999</ele><time>2026-04-25T16:44:55.207Z</time></trkpt><trkpt lat="40.8112701" lon="14.8577096"><ele>761.0</ele><time>2026-04-25T16:45:01.257Z</time></trkpt><trkpt lat="40.8113389" lon="14.8577133"><ele>761.0</ele><time>2026-04-25T16:45:09.174Z</time></trkpt><trkpt lat="40.8113965" lon="14.8577618"><ele>761.0</ele><time>2026-04-25T16:45:13.233Z</time></trkpt><trkpt lat="40.8114525" lon="14.8578035"><ele>761.0</ele><time>2026-04-25T16:45:23.238Z</time></trkpt><trkpt lat="40.8115126" lon="14.8578514"><ele>760.9999999999999</ele><time>2026-04-25T16:45:34.207Z</time></trkpt><trkpt lat="40.8115631" lon="14.8579213"><ele>761.0</ele><time>2026-04-25T16:45:41.222Z</time></trkpt><trkpt lat="40.8116288" lon="14.8578996"><ele>760.9999999999999</ele><time>2026-04-25T16:45:45.207Z</time></trkpt><trkpt lat="40.8116979" lon="14.8578696"><ele>761.0</ele><time>2026-04-25T16:45:51.219Z</time></trkpt><trkpt lat="40.8117535" lon="14.8579101"><ele>761.0</ele><time>2026-04-25T16:45:56.256Z</time></trkpt><trkpt lat="40.8118206" lon="14.8579172"><ele>761.0</ele><time>2026-04-25T16:46:04.207Z</time></trkpt><trkpt lat="40.8118884" lon="14.8579263"><ele>761.0</ele><time>2026-04-25T16:46:09.207Z</time></trkpt><trkpt lat="40.8119493" lon="14.857901"><ele>760.9999999999999</ele><time>2026-04-25T16:46:14.153Z</time></trkpt><trkpt lat="40.8120119" lon="14.8578493"><ele>761.0</ele><time>2026-04-25T16:46:25.207Z</time></trkpt><trkpt lat="40.8120753" lon="14.8578387"><ele>759.8571428571428</ele><time>2026-04-25T16:46:29.207Z</time></trkpt><trkpt lat="40.8121411" lon="14.8578227"><ele>758.7142857142857</ele><time>2026-04-25T16:46:34.23Z</time></trkpt><trkpt lat="40.8121949" lon="14.8578701"><ele>757.5714285714286</ele><time>2026-04-25T16:46:39.207Z</time></trkpt><trkpt lat="40.8122598" lon="14.8578937"><ele>756.4285714285713</ele><time>2026-04-25T16:46:46.239Z</time></trkpt><trkpt lat="40.8123206" lon="14.8579226"><ele>755.2857142857143</ele><time>2026-04-25T16:46:52.207Z</time></trkpt><trkpt lat="40.8123905" lon="14.8579609"><ele>754.1428571428571</ele><time>2026-04-25T16:46:58.207Z</time></trkpt><trkpt lat="40.812459" lon="14.8579754"><ele>753.0</ele><time>2026-04-25T16:47:03.207Z</time></trkpt><trkpt lat="40.8125169" lon="14.8580149"><ele>753.0</ele><time>2026-04-25T16:47:09.207Z</time></trkpt><trkpt lat="40.8126016" lon="14.8580126"><ele>753.0</ele><time>2026-04-25T16:49:10.207Z</time></trkpt><trkpt lat="40.8126599" lon="14.8580582"><ele>753.0</ele><time>2026-04-25T16:49:19.247Z</time></trkpt><trkpt lat="40.8127124" lon="14.8581051"><ele>753.0</ele><time>2026-04-25T16:49:27.116Z</time></trkpt><trkpt lat="40.8127974" lon="14.8580577"><ele>753.0</ele><time>2026-04-25T16:49:31.207Z</time></trkpt><trkpt lat="40.8128787" lon="14.8580248"><ele>753.0</ele><time>2026-04-25T16:50:37.207Z</time></trkpt><trkpt lat="40.8129426" lon="14.858015"><ele>751.2857142857143</ele><time>2026-04-25T16:50:43.249Z</time></trkpt><trkpt lat="40.8130068" lon="14.8580009"><ele>749.5714285714287</ele><time>2026-04-25T16:50:50.211Z</time></trkpt><trkpt lat="40.8130746" lon="14.8579777"><ele>747.8571428571429</ele><time>2026-04-25T16:50:56.207Z</time></trkpt><trkpt lat="40.8131449" lon="14.8579876"><ele>746.1428571428571</ele><time>2026-04-25T16:51:07.034Z</time></trkpt><trkpt lat="40.8132131" lon="14.8580023"><ele>744.4285714285714</ele><time>2026-04-25T16:51:12.221Z</time></trkpt><trkpt lat="40.8132855" lon="14.857992"><ele>742.7142857142857</ele><time>2026-04-25T16:51:19.239Z</time></trkpt><trkpt lat="40.8133461" lon="14.8580167"><ele>741.0</ele><time>2026-04-25T16:51:32.207Z</time></trkpt><trkpt lat="40.813441" lon="14.8580192"><ele>738.4285714285714</ele><time>2026-04-25T16:51:57.207Z</time></trkpt><trkpt lat="40.8135117" lon="14.8580131"><ele>735.8571428571429</ele><time>2026-04-25T16:52:02.207Z</time></trkpt><trkpt lat="40.8135791" lon="14.8580194"><ele>733.2857142857143</ele><time>2026-04-25T16:52:13.207Z</time></trkpt><trkpt lat="40.8136465" lon="14.8580008"><ele>730.7142857142858</ele><time>2026-04-25T16:52:18.207Z</time></trkpt><trkpt lat="40.8137105" lon="14.8579708"><ele>728.1428571428571</ele><time>2026-04-25T16:52:25.207Z</time></trkpt><trkpt lat="40.8137834" lon="14.8579837"><ele>725.5714285714287</ele><time>2026-04-25T16:52:32.207Z</time></trkpt><trkpt lat="40.8138513" lon="14.8579885"><ele>723.0</ele><time>2026-04-25T16:52:39.234Z</time></trkpt><trkpt lat="40.813926" lon="14.8580022"><ele>723.0000000000001</ele><time>2026-04-25T16:52:55.207Z</time></trkpt><trkpt lat="40.8140019" lon="14.8580063"><ele>723.0</ele><time>2026-04-25T16:53:01.24Z</time></trkpt><trkpt lat="40.814076" lon="14.8580048"><ele>723.0</ele><time>2026-04-25T16:53:08.196Z</time></trkpt><trkpt lat="40.8141313" lon="14.8579627"><ele>723.0</ele><time>2026-04-25T16:53:12.159Z</time></trkpt><trkpt lat="40.8141999" lon="14.8579496"><ele>723.0</ele><time>2026-04-25T16:53:17.219Z</time></trkpt><trkpt lat="40.8142664" lon="14.8579721"><ele>723.0000000000001</ele><time>2026-04-25T16:53:39.212Z</time></trkpt><trkpt lat="40.8143317" lon="14.8579988"><ele>723.0</ele><time>2026-04-25T16:53:58.207Z</time></trkpt><trkpt lat="40.8144015" lon="14.858"><ele>718.8571428571429</ele><time>2026-04-25T16:54:04.156Z</time></trkpt><trkpt lat="40.8144657" lon="14.8579713"><ele>714.7142857142858</ele><time>2026-04-25T16:54:12.209Z</time></trkpt><trkpt lat="40.8145301" lon="14.8579979"><ele>710.5714285714287</ele><time>2026-04-25T16:54:24.213Z</time></trkpt><trkpt lat="40.8145891" lon="14.8580498"><ele>706.4285714285714</ele><time>2026-04-25T16:54:32.207Z</time></trkpt><trkpt lat="40.8146544" lon="14.8580676"><ele>702.2857142857142</ele><time>2026-04-25T16:54:46.212Z</time></trkpt><trkpt lat="40.8147287" lon="14.858053"><ele>698.1428571428572</ele><time>2026-04-25T16:54:55.232Z</time></trkpt><trkpt lat="40.8147848" lon="14.8581011"><ele>694.0</ele><time>2026-04-25T16:55:02.992Z</time></trkpt><trkpt lat="40.8148481" lon="14.8581165"><ele>694.0</ele><time>2026-04-25T16:55:09.174Z</time></trkpt><trkpt lat="40.8149132" lon="14.8581544"><ele>694.0</ele><time>2026-04-25T16:55:17.207Z</time></trkpt><trkpt lat="40.8149775" lon="14.8581934"><ele>694.0</ele><time>2026-04-25T16:55:28.207Z</time></trkpt><trkpt lat="40.8150383" lon="14.8582303"><ele>694.0</ele><time>2026-04-25T16:55:36.207Z</time></trkpt><trkpt lat="40.8150984" lon="14.858205"><ele>694.0</ele><time>2026-04-25T16:55:46.207Z</time></trkpt><trkpt lat="40.8151677" lon="14.8582144"><ele>694.0</ele><time>2026-04-25T16:55:54.19Z</time></trkpt><trkpt lat="40.815237" lon="14.8581857"><ele>694.0</ele><time>2026-04-25T16:56:04.228Z</time></trkpt><trkpt lat="40.8153021" lon="14.8581928"><ele>691.6666666666667</ele><time>2026-04-25T16:56:12.206Z</time></trkpt><trkpt lat="40.8153659" lon="14.8582061"><ele>689.3333333333334</ele><time>2026-04-25T16:56:21.206Z</time></trkpt><trkpt lat="40.8154272" lon="14.8581696"><ele>687.0</ele><time>2026-04-25T16:56:32.206Z</time></trkpt><trkpt lat="40.8154939" lon="14.8581941"><ele>684.6666666666666</ele><time>2026-04-25T16:56:39.206Z</time></trkpt><trkpt lat="40.8155657" lon="14.8581937"><ele>682.3333333333333</ele><time>2026-04-25T16:56:46.233Z</time></trkpt><trkpt lat="40.8156876" lon="14.8581539"><ele>680.0</ele><time>2026-04-25T16:57:53.113Z</time></trkpt><trkpt lat="40.8157577" lon="14.8581058"><ele>680.0</ele><time>2026-04-25T16:57:59.206Z</time></trkpt><trkpt lat="40.8158168" lon="14.8580658"><ele>680.0</ele><time>2026-04-25T16:58:18.206Z</time></trkpt><trkpt lat="40.815885" lon="14.858081"><ele>680.0</ele><time>2026-04-25T16:59:06.206Z</time></trkpt><trkpt lat="40.8159444" lon="14.8580344"><ele>680.0</ele><time>2026-04-25T16:59:20.206Z</time></trkpt><trkpt lat="40.8160089" lon="14.8580431"><ele>680.0</ele><time>2026-04-25T17:00:32.206Z</time></trkpt><trkpt lat="40.8160722" lon="14.8580305"><ele>680.0</ele><time>2026-04-25T17:02:56.206Z</time></trkpt><trkpt lat="40.816123" lon="14.8579776"><ele>680.0</ele><time>2026-04-25T17:03:04.206Z</time></trkpt><trkpt lat="40.8161627" lon="14.8579098"><ele>679.8571428571429</ele><time>2026-04-25T17:03:09.206Z</time></trkpt><trkpt lat="40.8162255" lon="14.8578554"><ele>679.7142857142857</ele><time>2026-04-25T17:03:15.206Z</time></trkpt><trkpt lat="40.816268" lon="14.8577894"><ele>679.5714285714286</ele><time>2026-04-25T17:03:21.206Z</time></trkpt><trkpt lat="40.8163136" lon="14.8577285"><ele>679.4285714285714</ele><time>2026-04-25T17:03:26.155Z</time></trkpt><trkpt lat="40.8163662" lon="14.8576807"><ele>679.2857142857142</ele><time>2026-04-25T17:03:31.206Z</time></trkpt><trkpt lat="40.8164138" lon="14.8576244"><ele>679.1428571428571</ele><time>2026-04-25T17:03:36.11Z</time></trkpt><trkpt lat="40.8164625" lon="14.8575646"><ele>679.0</ele><time>2026-04-25T17:03:41.277Z</time></trkpt><trkpt lat="40.8165269" lon="14.8575093"><ele>675.4285714285714</ele><time>2026-04-25T17:03:46.13Z</time></trkpt><trkpt lat="40.8165767" lon="14.8574579"><ele>671.8571428571429</ele><time>2026-04-25T17:03:51.214Z</time></trkpt><trkpt lat="40.816637" lon="14.8574161"><ele>668.2857142857142</ele><time>2026-04-25T17:03:57.191Z</time></trkpt><trkpt lat="40.8166937" lon="14.8573773"><ele>664.7142857142858</ele><time>2026-04-25T17:04:03.251Z</time></trkpt><trkpt lat="40.8167591" lon="14.8573658"><ele>661.1428571428571</ele><time>2026-04-25T17:04:09.206Z</time></trkpt><trkpt lat="40.8168237" lon="14.8573754"><ele>657.5714285714286</ele><time>2026-04-25T17:04:18.206Z</time></trkpt><trkpt lat="40.8168964" lon="14.8574181"><ele>654.0</ele><time>2026-04-25T17:04:25.17Z</time></trkpt><trkpt lat="40.81696" lon="14.8574113"><ele>652.7142857142857</ele><time>2026-04-25T17:04:30.207Z</time></trkpt><trkpt lat="40.8170231" lon="14.8573749"><ele>651.4285714285714</ele><time>2026-04-25T17:04:36.229Z</time></trkpt><trkpt lat="40.8170917" lon="14.8573494"><ele>650.1428571428571</ele><time>2026-04-25T17:04:50.211Z</time></trkpt><trkpt lat="40.8171528" lon="14.8573256"><ele>648.8571428571429</ele><time>2026-04-25T17:04:56.206Z</time></trkpt><trkpt lat="40.8172237" lon="14.8572977"><ele>647.5714285714286</ele><time>2026-04-25T17:05:01.226Z</time></trkpt><trkpt lat="40.8172834" lon="14.8572551"><ele>646.2857142857143</ele><time>2026-04-25T17:05:09.206Z</time></trkpt><trkpt lat="40.8173514" lon="14.857228"><ele>645.0</ele><time>2026-04-25T17:05:18.212Z</time></trkpt><trkpt lat="40.8174129" lon="14.8572073"><ele>645.0</ele><time>2026-04-25T17:05:27.206Z</time></trkpt><trkpt lat="40.8174717" lon="14.857173"><ele>645.0</ele><time>2026-04-25T17:05:34.206Z</time></trkpt><trkpt lat="40.8175345" lon="14.8571279"><ele>645.0</ele><time>2026-04-25T17:05:39.206Z</time></trkpt><trkpt lat="40.817591" lon="14.8570742"><ele>645.0</ele><time>2026-04-25T17:05:47.206Z</time></trkpt><trkpt lat="40.8176557" lon="14.8570438"><ele>645.0</ele><time>2026-04-25T17:06:05.206Z</time></trkpt><trkpt lat="40.8177204" lon="14.8570273"><ele>645.0</ele><time>2026-04-25T17:06:14.241Z</time></trkpt><trkpt lat="40.8177861" lon="14.8569848"><ele>645.0</ele><time>2026-04-25T17:06:20.224Z</time></trkpt><trkpt lat="40.8178424" lon="14.8569361"><ele>643.5714285714286</ele><time>2026-04-25T17:06:26.105Z</time></trkpt><trkpt lat="40.8178982" lon="14.8568933"><ele>642.1428571428571</ele><time>2026-04-25T17:06:32.081Z</time></trkpt><trkpt lat="40.8179608" lon="14.8568431"><ele>640.7142857142857</ele><time>2026-04-25T17:06:38.044Z</time></trkpt><trkpt lat="40.8180265" lon="14.8568048"><ele>639.2857142857142</ele><time>2026-04-25T17:06:47.147Z</time></trkpt><trkpt lat="40.8180866" lon="14.8567668"><ele>637.8571428571429</ele><time>2026-04-25T17:06:52.201Z</time></trkpt><trkpt lat="40.8181423" lon="14.8567082"><ele>636.4285714285713</ele><time>2026-04-25T17:06:57.063Z</time></trkpt><trkpt lat="40.81821" lon="14.8566812"><ele>635.0</ele><time>2026-04-25T17:07:01.243Z</time></trkpt><trkpt lat="40.8182717" lon="14.8566409"><ele>632.7142857142857</ele><time>2026-04-25T17:07:05.242Z</time></trkpt><trkpt lat="40.8183365" lon="14.8566129"><ele>630.4285714285714</ele><time>2026-04-25T17:07:10.232Z</time></trkpt><trkpt lat="40.8183737" lon="14.856526"><ele>628.1428571428571</ele><time>2026-04-25T17:07:39.206Z</time></trkpt><trkpt lat="40.8183386" lon="14.8564367"><ele>625.8571428571429</ele><time>2026-04-25T17:07:55.206Z</time></trkpt><trkpt lat="40.8184009" lon="14.8564087"><ele>623.5714285714286</ele><time>2026-04-25T17:08:03.183Z</time></trkpt><trkpt lat="40.8184352" lon="14.8563348"><ele>621.2857142857142</ele><time>2026-04-25T17:08:11.147Z</time></trkpt><trkpt lat="40.8184699" lon="14.8562652"><ele>619.0</ele><time>2026-04-25T17:08:28.206Z</time></trkpt><trkpt lat="40.8184809" lon="14.8561742"><ele>616.7142857142857</ele><time>2026-04-25T17:08:36.206Z</time></trkpt><trkpt lat="40.8185352" lon="14.8561222"><ele>614.4285714285714</ele><time>2026-04-25T17:08:42.206Z</time></trkpt><trkpt lat="40.8185859" lon="14.8560593"><ele>612.1428571428571</ele><time>2026-04-25T17:08:49.206Z</time></trkpt><trkpt lat="40.8186396" lon="14.8561062"><ele>609.8571428571429</ele><time>2026-04-25T17:08:55.237Z</time></trkpt><trkpt lat="40.8187017" lon="14.856128"><ele>607.5714285714286</ele><time>2026-04-25T17:09:02.206Z</time></trkpt><trkpt lat="40.8187596" lon="14.8561791"><ele>605.2857142857143</ele><time>2026-04-25T17:09:13.206Z</time></trkpt><trkpt lat="40.8188212" lon="14.8562142"><ele>603.0</ele><time>2026-04-25T17:09:19.206Z</time></trkpt><trkpt lat="40.8188704" lon="14.8562689"><ele>603.0</ele><time>2026-04-25T17:09:26.235Z</time></trkpt><trkpt lat="40.8189344" lon="14.8562706"><ele>603.0</ele><time>2026-04-25T17:09:41.206Z</time></trkpt><trkpt lat="40.8190083" lon="14.8562453"><ele>603.0</ele><time>2026-04-25T17:09:51.206Z</time></trkpt><trkpt lat="40.8190874" lon="14.8562266"><ele>603.0</ele><time>2026-04-25T17:09:57.16Z</time></trkpt><trkpt lat="40.8191527" lon="14.8562379"><ele>603.0</ele><time>2026-04-25T17:10:12.206Z</time></trkpt><trkpt lat="40.8192098" lon="14.8561901"><ele>603.0</ele><time>2026-04-25T17:10:24.166Z</time></trkpt><trkpt lat="40.8192383" lon="14.8561155"><ele>603.0</ele><time>2026-04-25T17:10:35.227Z</time></trkpt><trkpt lat="40.8193218" lon="14.8561222"><ele>600.2857142857143</ele><time>2026-04-25T17:10:53.21Z</time></trkpt><trkpt lat="40.8193823" lon="14.8560676"><ele>597.5714285714286</ele><time>2026-04-25T17:11:08.203Z</time></trkpt><trkpt lat="40.81944" lon="14.8560125"><ele>594.8571428571429</ele><time>2026-04-25T17:11:19.181Z</time></trkpt><trkpt lat="40.8194474" lon="14.8559229"><ele>592.1428571428571</ele><time>2026-04-25T17:15:17.232Z</time></trkpt><trkpt lat="40.8194334" lon="14.8558358"><ele>589.4285714285714</ele><time>2026-04-25T17:15:23.205Z</time></trkpt><trkpt lat="40.8195057" lon="14.8558421"><ele>586.7142857142857</ele><time>2026-04-25T17:15:29.205Z</time></trkpt><trkpt lat="40.8195598" lon="14.8558942"><ele>584.0</ele><time>2026-04-25T17:15:36.205Z</time></trkpt><trkpt lat="40.8196161" lon="14.855822"><ele>582.8571428571429</ele><time>2026-04-25T17:15:49.211Z</time></trkpt><trkpt lat="40.819627" lon="14.8557349"><ele>581.7142857142858</ele><time>2026-04-25T17:15:54.224Z</time></trkpt><trkpt lat="40.8196563" lon="14.8556385"><ele>580.5714285714287</ele><time>2026-04-25T17:16:04.248Z</time></trkpt><trkpt lat="40.8196772" lon="14.8555566"><ele>579.4285714285714</ele><time>2026-04-25T17:16:09.205Z</time></trkpt><trkpt lat="40.8197365" lon="14.8555169"><ele>578.2857142857143</ele><time>2026-04-25T17:16:15.205Z</time></trkpt><trkpt lat="40.8197989" lon="14.8555344"><ele>577.1428571428572</ele><time>2026-04-25T17:16:21.24Z</time></trkpt><trkpt lat="40.8198669" lon="14.8555148"><ele>576.0</ele><time>2026-04-25T17:16:27.269Z</time></trkpt><trkpt lat="40.8199366" lon="14.8555719"><ele>576.0000000000001</ele><time>2026-04-25T17:16:35.264Z</time></trkpt><trkpt lat="40.8199968" lon="14.8556018"><ele>576.0</ele><time>2026-04-25T17:16:40.24Z</time></trkpt><trkpt lat="40.8200648" lon="14.8555996"><ele>576.0</ele><time>2026-04-25T17:16:44.205Z</time></trkpt><trkpt lat="40.8201444" lon="14.8556084"><ele>576.0</ele><time>2026-04-25T17:17:01.223Z</time></trkpt><trkpt lat="40.8202186" lon="14.8555648"><ele>576.0</ele><time>2026-04-25T17:17:44.24Z</time></trkpt><trkpt lat="40.820277" lon="14.8555287"><ele>576.0000000000001</ele><time>2026-04-25T17:17:48.208Z</time></trkpt><trkpt lat="40.8203313" lon="14.8554774"><ele>576.0</ele><time>2026-04-25T17:17:53.24Z</time></trkpt><trkpt lat="40.8203975" lon="14.8554982"><ele>573.4285714285714</ele><time>2026-04-25T17:18:02.205Z</time></trkpt><trkpt lat="40.8204511" lon="14.8554387"><ele>570.8571428571429</ele><time>2026-04-25T17:18:20.236Z</time></trkpt><trkpt lat="40.820423" lon="14.8553526"><ele>568.2857142857142</ele><time>2026-04-25T17:18:29.24Z</time></trkpt><trkpt lat="40.8203797" lon="14.855285"><ele>565.7142857142858</ele><time>2026-04-25T17:18:34.205Z</time></trkpt><trkpt lat="40.8203865" lon="14.8551998"><ele>563.1428571428571</ele><time>2026-04-25T17:18:49.24Z</time></trkpt><trkpt lat="40.820322" lon="14.8551463"><ele>560.5714285714286</ele><time>2026-04-25T17:19:16.255Z</time></trkpt><trkpt lat="40.8202611" lon="14.8551026"><ele>558.0</ele><time>2026-04-25T17:19:25.24Z</time></trkpt><trkpt lat="40.8202011" lon="14.8550671"><ele>558.2857142857142</ele><time>2026-04-25T17:19:32.24Z</time></trkpt><trkpt lat="40.8201368" lon="14.8550372"><ele>558.5714285714286</ele><time>2026-04-25T17:20:55.205Z</time></trkpt><trkpt lat="40.820071" lon="14.8550315"><ele>558.8571428571429</ele><time>2026-04-25T17:21:06.205Z</time></trkpt><trkpt lat="40.8200044" lon="14.8550452"><ele>559.1428571428571</ele><time>2026-04-25T17:21:19.205Z</time></trkpt><trkpt lat="40.8199407" lon="14.8550577"><ele>559.4285714285714</ele><time>2026-04-25T17:22:03.205Z</time></trkpt><trkpt lat="40.8198725" lon="14.8550607"><ele>559.7142857142857</ele><time>2026-04-25T17:22:19.205Z</time></trkpt><trkpt lat="40.819835" lon="14.8551374"><ele>560.0</ele><time>2026-04-25T17:24:10.205Z</time></trkpt><trkpt lat="40.8197715" lon="14.8551577"><ele>560.0</ele><time>2026-04-25T17:24:17.205Z</time></trkpt><trkpt lat="40.8197073" lon="14.8551641"><ele>560.0</ele><time>2026-04-25T17:24:28.205Z</time></trkpt><trkpt lat="40.8196394" lon="14.8551092"><ele>560.0</ele><time>2026-04-25T17:24:41.205Z</time></trkpt><trkpt lat="40.8195764" lon="14.8550777"><ele>560.0</ele><time>2026-04-25T17:24:51.205Z</time></trkpt><trkpt lat="40.8195243" lon="14.8550178"><ele>560.0</ele><time>2026-04-25T17:25:01.205Z</time></trkpt><trkpt lat="40.8194723" lon="14.8549562"><ele>560.0</ele><time>2026-04-25T17:25:06.205Z</time></trkpt><trkpt lat="40.8194319" lon="14.8548792"><ele>560.0</ele><time>2026-04-25T17:25:11.205Z</time></trkpt><trkpt lat="40.8194941" lon="14.8548934"><ele>560.0</ele><time>2026-04-25T17:25:28.205Z</time></trkpt><trkpt lat="40.8195147" lon="14.8548141"><ele>560.0</ele><time>2026-04-25T17:25:41.205Z</time></trkpt><trkpt lat="40.819584" lon="14.8548389"><ele>560.0</ele><time>2026-04-25T17:25:56.205Z</time></trkpt><trkpt lat="40.8196238" lon="14.8549076"><ele>560.0</ele><time>2026-04-25T17:26:01.24Z</time></trkpt><trkpt lat="40.8196838" lon="14.8549396"><ele>560.0</ele><time>2026-04-25T17:26:05.24Z</time></trkpt><trkpt lat="40.8197637" lon="14.85496"><ele>560.0</ele><time>2026-04-25T17:27:18.24Z</time></trkpt><trkpt lat="40.8198169" lon="14.854885"><ele>560.0</ele><time>2026-04-25T17:27:28.24Z</time></trkpt><trkpt lat="40.8198799" lon="14.8548702"><ele>560.0</ele><time>2026-04-25T17:28:09.191Z</time></trkpt><trkpt lat="40.8199445" lon="14.8548731"><ele>560.0</ele><time>2026-04-25T17:28:16.205Z</time></trkpt><trkpt lat="40.8200165" lon="14.8548766"><ele>560.0</ele><time>2026-04-25T17:29:34.206Z</time></trkpt><trkpt lat="40.8200823" lon="14.8548972"><ele>560.0</ele><time>2026-04-25T17:29:42.205Z</time></trkpt><trkpt lat="40.8201589" lon="14.8548861"><ele>560.0</ele><time>2026-04-25T17:29:47.205Z</time></trkpt><trkpt lat="40.8202315" lon="14.8548652"><ele>560.0</ele><time>2026-04-25T17:29:52.237Z</time></trkpt><trkpt lat="40.8202974" lon="14.8548361"><ele>560.0</ele><time>2026-04-25T17:29:57.205Z</time></trkpt><trkpt lat="40.8203513" lon="14.854883"><ele>557.4285714285714</ele><time>2026-04-25T17:30:13.24Z</time></trkpt><trkpt lat="40.8204086" lon="14.8548444"><ele>554.8571428571429</ele><time>2026-04-25T17:30:17.205Z</time></trkpt><trkpt lat="40.8204878" lon="14.8547856"><ele>552.2857142857142</ele><time>2026-04-25T17:31:10.205Z</time></trkpt><trkpt lat="40.8205421" lon="14.8548324"><ele>549.7142857142858</ele><time>2026-04-25T17:31:31.257Z</time></trkpt><trkpt lat="40.8206071" lon="14.8548774"><ele>547.1428571428571</ele><time>2026-04-25T17:31:39.22Z</time></trkpt><trkpt lat="40.820673" lon="14.8549062"><ele>544.5714285714286</ele><time>2026-04-25T17:31:44.205Z</time></trkpt><trkpt lat="40.8207338" lon="14.8548597"><ele>542.0</ele><time>2026-04-25T17:31:57.24Z</time></trkpt><trkpt lat="40.8207916" lon="14.8549078"><ele>542.0</ele><time>2026-04-25T17:32:08.157Z</time></trkpt><trkpt lat="40.8208632" lon="14.8549481"><ele>542.0</ele><time>2026-04-25T17:32:19.205Z</time></trkpt><trkpt lat="40.8209246" lon="14.8549198"><ele>542.0</ele><time>2026-04-25T17:32:28.205Z</time></trkpt><trkpt lat="40.8209754" lon="14.8548674"><ele>542.0</ele><time>2026-04-25T17:32:40.205Z</time></trkpt><trkpt lat="40.8210343" lon="14.8548294"><ele>542.0</ele><time>2026-04-25T17:32:46.205Z</time></trkpt><trkpt lat="40.8211043" lon="14.854837"><ele>542.0</ele><time>2026-04-25T17:32:56.205Z</time></trkpt><trkpt lat="40.8211688" lon="14.8548785"><ele>542.0</ele><time>2026-04-25T17:33:08.205Z</time></trkpt><trkpt lat="40.8212327" lon="14.854906"><ele>520.0</ele><time>2026-04-25T17:33:17.24Z</time></trkpt><trkpt lat="40.8212986" lon="14.8549322"><ele>520.0</ele><time>2026-04-25T17:33:31.205Z</time></trkpt><trkpt lat="40.8213665" lon="14.8549594"><ele>520.0</ele><time>2026-04-25T17:34:02.205Z</time></trkpt><trkpt lat="40.8214262" lon="14.8549316"><ele>520.0</ele><time>2026-04-25T17:34:10.206Z</time></trkpt><trkpt lat="40.8214405" lon="14.8548242"><ele>520.0</ele><time>2026-04-25T17:34:42.661Z</time></trkpt><trkpt lat="40.8213404" lon="14.854833"><ele>520.0</ele><time>2026-04-25T17:34:47.205Z</time></trkpt></trkseg></trk></gpx>